PORTS® Data Listing: 8516945 Kings Point, NY

CO-OPS RAW PORTS DATA

************************      PRELIMINARY DATA      ************************** 

     THIS RAW DATA HAS NOT BEEN SUBJECT TO THE NATIONAL OCEAN SERVICE'S        
     QUALITY CONTROL OR QUALITY ASSURANCE PROCEDURES AND DOES NOT MEET         
     THE CRITERIA AND STANDARDS OF OFFICIAL NATIONAL OCEAN SERVICE             
     DATA.  IT IS RELEASED FOR LIMITED PUBLIC USE AS PRELIMINARY DATA TO       
     BE USED ONLY WITH APPROPRIATE CAUTION.                                    

************************      PRELIMINARY DATA      ************************** 


       CD   -   Calendar date
       T    -   Time
       TZ   -   Timezone
       PW   -   Predicted water level (feet above MLLW)
       OW   -   Observed water level (feet above MLLW)
       WS   -   Wind speed (knots)
       WD   -   Wind direction (degrees true)
       WG   -   Wind gust (knots)
       AT   -   Air temperature (degrees farenheit)
       WT   -   Water temperature (degrees farenheit)
       AP   -   Air pressure (millibars)
       SA   -   Salinty (PSU - Practical Salinity Units)
       SG   -   Specific gravity
       RH   -   Relative humidity
       AG   -   Air gap (feet)
       VI   -   Visibility (nautical miles)

       ** NOTE **
       A variable that has its data fields filled with "9"s, indicates that
       data was not collected for that sample period.
       **********


STATION NAME: Kings Point (8516945)
****************************************************************************************************
    CD       T    TZ    PW     OW    WS   WD   WG    AT    WT    AP    SA    SG     RH    AG   VI
****************************************************************************************************
2020/01/24 05:06 EST   -0.16   0.31    0  344    0  33.8  39.4 1028.0 -9.9 -9.999 -99.9 -99.99 -9.99
2020/01/24 05:12 EST   -0.18   0.31    0  344    0  33.4  39.4 1028.0 -9.9 -9.999 -99.9 -99.99 -9.99
2020/01/24 05:18 EST   -0.20   0.33    1  344    2  33.6  39.4 1028.1 -9.9 -9.999 -99.9 -99.99 -9.99
2020/01/24 05:24 EST   -0.20   0.35    0  334    2  33.4  39.4 1028.2 -9.9 -9.999 -99.9 -99.99 -9.99
2020/01/24 05:30 EST   -0.19   0.38    0  334    0  33.4  39.2 1028.2 -9.9 -9.999 -99.9 -99.99 -9.99
2020/01/24 05:36 EST   -0.17   0.42    0  333    0  33.4  39.0 1028.3 -9.9 -9.999 -99.9 -99.99 -9.99
2020/01/24 05:42 EST   -0.13   0.48    1   32    1  33.8  39.2 1028.4 -9.9 -9.999 -99.9 -99.99 -9.99
2020/01/24 05:48 EST   -0.08   0.53    1   25    1  34.0  39.2 1028.5 -9.9 -9.999 -99.9 -99.99 -9.99
2020/01/24 05:54 EST   -0.01   0.59    0   24    1  33.4  39.2 1028.6 -9.9 -9.999 -99.9 -99.99 -9.99
2020/01/24 06:00 EST    0.07   0.67    1   68    2  33.8  39.2 1028.7 -9.9 -9.999 -99.9 -99.99 -9.99
2020/01/24 06:06 EST    0.17   0.76    1   89    3  33.4  39.2 1028.7 -9.9 -9.999 -99.9 -99.99 -9.99
2020/01/24 06:12 EST    0.29   0.87    1  114    2  33.8  39.2 1028.8 -9.9 -9.999 -99.9 -99.99 -9.99
2020/01/24 06:18 EST    0.43   0.97    0  113    1  33.6  39.4 1028.8 -9.9 -9.999 -99.9 -99.99 -9.99
2020/01/24 06:24 EST    0.58   1.09    0  141    0  33.4  39.4 1028.8 -9.9 -9.999 -99.9 -99.99 -9.99
2020/01/24 06:30 EST    0.74   1.23    0  177    1  33.6  39.4 1028.9 -9.9 -9.999 -99.9 -99.99 -9.99
2020/01/24 06:36 EST    0.93   1.37    0  177    0  33.4  39.4 1028.9 -9.9 -9.999 -99.9 -99.99 -9.99
2020/01/24 06:42 EST    1.12   1.53    0  176    0  33.4  39.6 1029.0 -9.9 -9.999 -99.9 -99.99 -9.99
2020/01/24 06:48 EST    1.33   1.71    1  132    1  33.1  39.6 1029.0 -9.9 -9.999 -99.9 -99.99 -9.99
2020/01/24 06:54 EST    1.55   1.90    0  145    0  33.3  39.6 1029.0 -9.9 -9.999 -99.9 -99.99 -9.99
2020/01/24 07:00 EST    1.78   2.10    1  103    2  33.4  39.6 1029.0 -9.9 -9.999 -99.9 -99.99 -9.99
2020/01/24 07:06 EST    2.03   2.31    0  129    1  33.1  39.6 1029.0 -9.9 -9.999 -99.9 -99.99 -9.99
2020/01/24 07:12 EST    2.27   2.54    2  113    2  33.6  39.6 1029.0 -9.9 -9.999 -99.9 -99.99 -9.99
2020/01/24 07:18 EST    2.53   2.77    1   95    2  33.4  39.6 1029.1 -9.9 -9.999 -99.9 -99.99 -9.99
2020/01/24 07:24 EST    2.79   3.01    1   30    2  33.8  39.6 1029.3 -9.9 -9.999 -99.9 -99.99 -9.99
2020/01/24 07:30 EST    3.05   3.26    1   46    2  33.3  39.6 1029.3 -9.9 -9.999 -99.9 -99.99 -9.99
2020/01/24 07:36 EST    3.31   3.51    1   64    2  33.1  39.6 1029.4 -9.9 -9.999 -99.9 -99.99 -9.99
2020/01/24 07:42 EST    3.57   3.76    1   43    2  33.3  39.6 1029.5 -9.9 -9.999 -99.9 -99.99 -9.99
2020/01/24 07:48 EST    3.82   4.01    2   51    3  33.3  39.7 1029.6 -9.9 -9.999 -99.9 -99.99 -9.99
2020/01/24 07:54 EST    4.08   4.26    3   56    3  33.3  39.7 1029.5 -9.9 -9.999 -99.9 -99.99 -9.99
2020/01/24 08:00 EST    4.32   4.51    3   60    4  33.4  39.7 1029.5 -9.9 -9.999 -99.9 -99.99 -9.99
2020/01/24 08:06 EST    4.57   4.75    4   60    4  33.6  39.7 1029.6 -9.9 -9.999 -99.9 -99.99 -9.99
2020/01/24 08:12 EST    4.80   4.99    4   60    5  34.0  39.7 1029.6 -9.9 -9.999 -99.9 -99.99 -9.99
2020/01/24 08:18 EST    5.02   5.23    5   66    6  34.2  39.6 1029.5 -9.9 -9.999 -99.9 -99.99 -9.99
2020/01/24 08:24 EST    5.24   5.47    6   61    7  34.5  39.7 1029.5 -9.9 -9.999 -99.9 -99.99 -9.99
2020/01/24 08:30 EST    5.45   5.70    7   77    8  34.7  39.7 1029.5 -9.9 -9.999 -99.9 -99.99 -9.99
2020/01/24 08:36 EST    5.64   5.93    5   91    8  35.4  39.7 1029.4 -9.9 -9.999 -99.9 -99.99 -9.99
2020/01/24 08:42 EST    5.83   6.15    4  102    8  35.8  39.7 1029.4 -9.9 -9.999 -99.9 -99.99 -9.99
2020/01/24 08:48 EST    6.00   6.37    4   96    6  36.1  39.7 1029.5 -9.9 -9.999 -99.9 -99.99 -9.99
2020/01/24 08:54 EST    6.17   6.57    3   88    5  36.5  39.7 1029.7 -9.9 -9.999 -99.9 -99.99 -9.99
2020/01/24 09:00 EST    6.33   6.77    3   41    4  36.9  39.9 1029.8 -9.9 -9.999 -99.9 -99.99 -9.99
2020/01/24 09:06 EST    6.47   6.95    5   53    5  36.9  39.9 1029.8 -9.9 -9.999 -99.9 -99.99 -9.99
2020/01/24 09:12 EST    6.61   7.12    3   55    5  36.9  39.9 1029.8 -9.9 -9.999 -99.9 -99.99 -9.99
2020/01/24 09:18 EST    6.74   7.28    3   42    4  36.7  39.9 1029.8 -9.9 -9.999 -99.9 -99.99 -9.99
2020/01/24 09:24 EST    6.86   7.43    4   51    4  36.9  39.9 1029.7 -9.9 -9.999 -99.9 -99.99 -9.99
2020/01/24 09:30 EST    6.97   7.57    4   53    4  37.2  39.9 1029.8 -9.9 -9.999 -99.9 -99.99 -9.99
2020/01/24 09:36 EST    7.07   7.70    4   54    5  37.9  39.9 1029.8 -9.9 -9.999 -99.9 -99.99 -9.99
2020/01/24 09:42 EST    7.17   7.82    4   43    4  38.1  39.9 1029.8 -9.9 -9.999 -99.9 -99.99 -9.99
2020/01/24 09:48 EST    7.26   7.91    4   54    5  38.8  39.9 1029.8 -9.9 -9.999 -99.9 -99.99 -9.99
2020/01/24 09:54 EST    7.35   7.99    5   32    5  38.1  39.9 1029.9 -9.9 -9.999 -99.9 -99.99 -9.99
2020/01/24 10:00 EST    7.43   8.05    6   37    6  37.6  39.9 1029.9 -9.9 -9.999 -99.9 -99.99 -9.99
2020/01/24 10:06 EST    7.50   8.09    6   39    6  37.4  40.1 1029.9 -9.9 -9.999 -99.9 -99.99 -9.99
2020/01/24 10:12 EST    7.57   8.12    7   40    8  37.0  40.1 1030.0 -9.9 -9.999 -99.9 -99.99 -9.99
2020/01/24 10:18 EST    7.64   8.14    7   44    8  37.0  40.1 1030.0 -9.9 -9.999 -99.9 -99.99 -9.99
2020/01/24 10:24 EST    7.69   8.16    7   46    8  37.4  39.9 1030.1 -9.9 -9.999 -99.9 -99.99 -9.99
2020/01/24 10:30 EST    7.75   8.17    7   52    8  37.4  39.9 1030.0 -9.9 -9.999 -99.9 -99.99 -9.99
2020/01/24 10:36 EST    7.79   8.18    8   51    9  37.6  39.9 1030.0 -9.9 -9.999 -99.9 -99.99 -9.99
2020/01/24 10:42 EST    7.83   8.20    8   53    9  37.6  39.9 1030.0 -9.9 -9.999 -99.9 -99.99 -9.99
2020/01/24 10:48 EST    7.87   8.22    7   50    9  37.9  39.9 1030.0 -9.9 -9.999 -99.9 -99.99 -9.99
2020/01/24 10:54 EST    7.90   8.23    7   50    8  38.1  39.9 1030.0 -9.9 -9.999 -99.9 -99.99 -9.99
2020/01/24 11:00 EST    7.92   8.24    7   47    9  37.9  39.9 1029.9 -9.9 -9.999 -99.9 -99.99 -9.99
2020/01/24 11:06 EST    7.93   8.25    8   53    9  38.1  39.7 1029.8 -9.9 -9.999 -99.9 -99.99 -9.99
2020/01/24 11:12 EST    7.93   8.26    8   53    9  38.5  39.7 1029.7 -9.9 -9.999 -99.9 -99.99 -9.99
2020/01/24 11:18 EST    7.93   8.26    9   52   10  38.5  39.7 1029.7 -9.9 -9.999 -99.9 -99.99 -9.99
2020/01/24 11:24 EST    7.91   8.26    8   59   10  38.7  39.7 1029.5 -9.9 -9.999 -99.9 -99.99 -9.99
2020/01/24 11:30 EST    7.89   8.24    8   52    9  39.2  39.7 1029.4 -9.9 -9.999 -99.9 -99.99 -9.99
2020/01/24 11:36 EST    7.85   8.21    8   58   10  39.4  39.6 1029.3 -9.9 -9.999 -99.9 -99.99 -9.99
2020/01/24 11:42 EST    7.80   8.18    8   60    9  39.9  39.6 1029.1 -9.9 -9.999 -99.9 -99.99 -9.99
2020/01/24 11:48 EST    7.75   8.14    7   55    9  40.6  39.7 1029.0 -9.9 -9.999 -99.9 -99.99 -9.99
2020/01/24 11:54 EST    7.68   8.10    6   59    8  41.5  39.7 1028.8 -9.9 -9.999 -99.9 -99.99 -9.99
2020/01/24 12:00 EST    7.60   8.03    7   49    8  40.6  39.7 1028.8 -9.9 -9.999 -99.9 -99.99 -9.99
2020/01/24 12:06 EST    7.50   7.96    8   49    9  40.6  39.7 1028.8 -9.9 -9.999 -99.9 -99.99 -9.99
2020/01/24 12:12 EST    7.40   7.89    8   55   10  40.8  39.7 1028.7 -9.9 -9.999 -99.9 -99.99 -9.99
2020/01/24 12:18 EST    7.28   7.81    9   46   10  39.9  39.7 1028.6 -9.9 -9.999 -99.9 -99.99 -9.99
2020/01/24 12:24 EST    7.15   7.72   10   52   11  39.9  39.7 1028.5 -9.9 -9.999 -99.9 -99.99 -9.99
2020/01/24 12:30 EST    7.01   7.61   11   50   12  39.7  39.6 1028.4 -9.9 -9.999 -99.9 -99.99 -9.99
2020/01/24 12:36 EST    6.86   7.48   11   50   12  39.7  39.6 1028.4 -9.9 -9.999 -99.9 -99.99 -9.99
2020/01/24 12:42 EST    6.70   7.36   11   54   12  39.7  39.6 1028.3 -9.9 -9.999 -99.9 -99.99 -9.99
2020/01/24 12:48 EST    6.52   7.21   11   54   12  39.6  39.6 1028.2 -9.9 -9.999 -99.9 -99.99 -9.99
2020/01/24 12:54 EST    6.34   7.03   12   53   13  39.6  39.6 1028.1 -9.9 -9.999 -99.9 -99.99 -9.99
2020/01/24 13:00 EST    6.15   6.86   10   62   13  39.6  39.6 1028.0 -9.9 -9.999 -99.9 -99.99 -9.99
2020/01/24 13:06 EST    5.95   6.68   10   62   12  39.7  39.6 1027.9 -9.9 -9.999 -99.9 -99.99 -9.99
2020/01/24 13:12 EST    5.74   6.48    9   59   11  39.9  39.6 1027.8 -9.9 -9.999 -99.9 -99.99 -9.99
2020/01/24 13:18 EST    5.53   6.28    9   65   11  41.2  39.4 1027.6 -9.9 -9.999 -99.9 -99.99 -9.99
2020/01/24 13:24 EST    5.31   6.06    8   63   10  42.1  39.4 1027.5 -9.9 -9.999 -99.9 -99.99 -9.99
2020/01/24 13:30 EST    5.09   5.84    8   59    9  42.8  39.6 1027.4 -9.9 -9.999 -99.9 -99.99 -9.99
2020/01/24 13:36 EST    4.86   5.61    8   63   10  43.7  39.4 1027.4 -9.9 -9.999 -99.9 -99.99 -9.99
2020/01/24 13:42 EST    4.64   5.37    8   57    9  42.1  39.4 1027.3 -9.9 -9.999 -99.9 -99.99 -9.99
2020/01/24 13:48 EST    4.41   5.13    8   59   10  41.2  39.6 1027.3 -9.9 -9.999 -99.9 -99.99 -9.99
2020/01/24 13:54 EST    4.18   4.89    9   58   10  41.2  39.4 1027.1 -9.9 -9.999 -99.9 -99.99 -9.99
2020/01/24 14:00 EST    3.95   4.65    8   61    9  42.3  39.4 1027.1 -9.9 -9.999 -99.9 -99.99 -9.99
2020/01/24 14:06 EST    3.73   4.40    6   63    8  43.7  39.4 1027.0 -9.9 -9.999 -99.9 -99.99 -9.99
2020/01/24 14:12 EST    3.50   4.16    7   69    8  44.8  39.6 1026.9 -9.9 -9.999 -99.9 -99.99 -9.99
2020/01/24 14:18 EST    3.29   3.91    6   62    8  44.6  39.4 1026.9 -9.9 -9.999 -99.9 -99.99 -9.99
2020/01/24 14:24 EST    3.07   3.67    6   66    9  43.9  39.6 1026.9 -9.9 -9.999 -99.9 -99.99 -9.99
2020/01/24 14:30 EST    2.87   3.44    7   65    8  42.6  39.6 1026.8 -9.9 -9.999 -99.9 -99.99 -9.99
2020/01/24 14:36 EST    2.67   3.21    6   68    7  44.8  39.6 1026.7 -9.9 -9.999 -99.9 -99.99 -9.99
2020/01/24 14:42 EST    2.47   2.98    7   60    9  45.0  39.6 1026.7 -9.9 -9.999 -99.9 -99.99 -9.99
2020/01/24 14:48 EST    2.28   2.76    6   80    8  45.5  39.6 1026.7 -9.9 -9.999 -99.9 -99.99 -9.99
2020/01/24 14:54 EST    2.11   2.55    7   95    9  47.3  39.6 1026.7 -9.9 -9.999 -99.9 -99.99 -9.99
2020/01/24 15:00 EST    1.93   2.36    4  111    8  47.8  39.6 1026.7 -9.9 -9.999 -99.9 -99.99 -9.99
2020/01/24 15:06 EST    1.77   2.16    5   71    7  47.1  39.6 1026.8 -9.9 -9.999 -99.9 -99.99 -9.99
2020/01/24 15:12 EST    1.61   1.97    5   80    7  46.6  39.6 1026.7 -9.9 -9.999 -99.9 -99.99 -9.99
2020/01/24 15:18 EST    1.46   1.79    5   79    7  46.6  39.4 1026.6 -9.9 -9.999 -99.9 -99.99 -9.99
2020/01/24 15:24 EST    1.32   1.62    5   69    7  46.9  39.6 1026.7 -9.9 -9.999 -99.9 -99.99 -9.99
2020/01/24 15:30 EST    1.19   1.44    5   58    7  45.9  39.4 1026.7 -9.9 -9.999 -99.9 -99.99 -9.99
2020/01/24 15:36 EST    1.06   1.28    5   74    7  46.9  39.4 1026.7 -9.9 -9.999 -99.9 -99.99 -9.99
2020/01/24 15:42 EST    0.94   1.13    4   79    8  46.9  39.6 1026.6 -9.9 -9.999 -99.9 -99.99 -9.99
2020/01/24 15:48 EST    0.82   1.01    5   93    6  47.3  39.6 1026.6 -9.9 -9.999 -99.9 -99.99 -9.99
2020/01/24 15:54 EST    0.70   0.89    6   87    8  46.9  39.6 1026.5 -9.9 -9.999 -99.9 -99.99 -9.99
2020/01/24 16:00 EST    0.60   0.79    5   91    8  46.6  39.6 1026.5 -9.9 -9.999 -99.9 -99.99 -9.99
2020/01/24 16:06 EST    0.49   0.71    4  103    7  46.0  39.6 1026.6 -9.9 -9.999 -99.9 -99.99 -9.99
2020/01/24 16:12 EST    0.39   0.65    3  106    7  45.9  39.6 1026.7 -9.9 -9.999 -99.9 -99.99 -9.99
2020/01/24 16:18 EST    0.29   0.59    4   94    6  45.5  39.6 1026.7 -9.9 -9.999 -99.9 -99.99 -9.99
2020/01/24 16:24 EST    0.19   0.55    5   99    6  45.1  39.6 1026.7 -9.9 -9.999 -99.9 -99.99 -9.99
2020/01/24 16:30 EST    0.10   0.52    5  100    7  45.1  39.6 1026.6 -9.9 -9.999 -99.9 -99.99 -9.99
2020/01/24 16:36 EST    0.00   0.50    5  103    7  44.8  39.6 1026.6 -9.9 -9.999 -99.9 -99.99 -9.99
2020/01/24 16:42 EST   -0.09   0.50    5  105    6  44.6  39.6 1026.5 -9.9 -9.999 -99.9 -99.99 -9.99
2020/01/24 16:48 EST   -0.17   0.48    4  114    6  44.6  39.6 1026.5 -9.9 -9.999 -99.9 -99.99 -9.99
2020/01/24 16:54 EST   -0.26   0.48    4  115    6  44.4  39.6 1026.5 -9.9 -9.999 -99.9 -99.99 -9.99
2020/01/24 17:00 EST   -0.34   0.47    4  120    6  44.2  39.7 1026.6 -9.9 -9.999 -99.9 -99.99 -9.99
2020/01/24 17:06 EST   -0.42   0.45    3  117    5  44.4  39.7 1026.7 -9.9 -9.999 -99.9 -99.99 -9.99
2020/01/24 17:12 EST   -0.49   0.42    2  143    5  44.4  39.6 1026.7 -9.9 -9.999 -99.9 -99.99 -9.99
2020/01/24 17:18 EST   -0.56   0.39    2  141    4  44.6  39.6 1026.8 -9.9 -9.999 -99.9 -99.99 -9.99
2020/01/24 17:24 EST   -0.62   0.35    1  231    3  44.4  39.6 1027.0 -9.9 -9.999 -99.9 -99.99 -9.99
2020/01/24 17:30 EST   -0.67   0.32    2  225    2  44.8  39.4 1027.3 -9.9 -9.999 -99.9 -99.99 -9.99
2020/01/24 17:36 EST   -0.71   0.28    3  184    4  44.2  39.4 1027.1 -9.9 -9.999 -99.9 -99.99 -9.99
2020/01/24 17:42 EST   -0.74   0.24    2  192    5  44.4  39.4 1027.2 -9.9 -9.999 -99.9 -99.99 -9.99
2020/01/24 17:48 EST   -0.76   0.19    2  170    4  44.8  39.4 1027.2 -9.9 -9.999 -99.9 -99.99 -9.99
2020/01/24 17:54 EST   -0.77   0.16    3  167    4  44.6  39.2 1027.2 -9.9 -9.999 -99.9 -99.99 -9.99
2020/01/24 18:00 EST   -0.77   0.14    3  104    4  42.8  39.2 1027.2 -9.9 -9.999 -99.9 -99.99 -9.99
2020/01/24 18:06 EST   -0.75   0.11    4   70    5  39.9  39.2 1027.2 -9.9 -9.999 -99.9 -99.99 -9.99
2020/01/24 18:12 EST   -0.72   0.09    4   67    5  39.6  39.2 1027.3 -9.9 -9.999 -99.9 -99.99 -9.99
2020/01/24 18:18 EST   -0.66   0.07    2  110    4  40.1  39.2 1027.4 -9.9 -9.999 -99.9 -99.99 -9.99
2020/01/24 18:24 EST   -0.60   0.06    3  116    4  41.7  39.4 1027.4 -9.9 -9.999 -99.9 -99.99 -9.99
2020/01/24 18:30 EST   -0.51   0.06    2  119    4  41.5  39.2 1027.4 -9.9 -9.999 -99.9 -99.99 -9.99
2020/01/24 18:36 EST   -0.41   0.09    1  112    3  40.1  39.4 1027.3 -9.9 -9.999 -99.9 -99.99 -9.99
2020/01/24 18:42 EST   -0.29   0.12    1  108    2  39.7  39.2 1027.3 -9.9 -9.999 -99.9 -99.99 -9.99
2020/01/24 18:48 EST   -0.16   0.17    3   78    3  39.6  39.4 1027.2 -9.9 -9.999 -99.9 -99.99 -9.99
2020/01/24 18:54 EST   -0.01   0.24    3  101    4  39.6  39.4 1027.1 -9.9 -9.999 -99.9 -99.99 -9.99
2020/01/24 19:00 EST    0.16   0.32    2  106    3  40.8  39.4 1027.1 -9.9 -9.999 -99.9 -99.99 -9.99
2020/01/24 19:06 EST    0.35   0.44    3  104    5  41.2  39.4 1027.1 -9.9 -9.999 -99.9 -99.99 -9.99
2020/01/24 19:12 EST    0.54   0.58    2   89    5  41.2  39.4 1027.0 -9.9 -9.999 -99.9 -99.99 -9.99
2020/01/24 19:18 EST    0.75   0.76    1   75    4  40.8  39.4 1026.9 -9.9 -9.999 -99.9 -99.99 -9.99
2020/01/24 19:24 EST    0.98   0.95    2   39    3  39.4  39.4 1026.9 -9.9 -9.999 -99.9 -99.99 -9.99
2020/01/24 19:30 EST    1.21   1.17    2   43    4  39.7  39.4 1026.9 -9.9 -9.999 -99.9 -99.99 -9.99
2020/01/24 19:36 EST    1.45   1.40    4   39    5  39.0  39.4 1027.0 -9.9 -9.999 -99.9 -99.99 -9.99
2020/01/24 19:42 EST    1.69   1.66    5   54    6  38.5  39.6 1027.1 -9.9 -9.999 -99.9 -99.99 -9.99
2020/01/24 19:48 EST    1.94   1.95    5   56    6  38.3  39.4 1027.1 -9.9 -9.999 -99.9 -99.99 -9.99
2020/01/24 19:54 EST    2.20   2.24    5   52    6  38.1  39.4 1027.1 -9.9 -9.999 -99.9 -99.99 -9.99
2020/01/24 20:00 EST    2.45   2.56    5   50    6  38.1  39.4 1027.1 -9.9 -9.999 -99.9 -99.99 -9.99
2020/01/24 20:06 EST    2.71   2.87    4   61    6  38.1  39.4 1027.1 -9.9 -9.999 -99.9 -99.99 -9.99
2020/01/24 20:12 EST    2.96   3.19    4   57    5  38.3  39.4 1027.0 -9.9 -9.999 -99.9 -99.99 -9.99
2020/01/24 20:18 EST    3.21   3.51    5   54    6  38.3  39.4 1026.9 -9.9 -9.999 -99.9 -99.99 -9.99
2020/01/24 20:24 EST    3.46   3.83    5   61    6  38.1  39.4 1026.9 -9.9 -9.999 -99.9 -99.99 -9.99
2020/01/24 20:30 EST    3.70   4.14    4   57    6  38.3  39.6 1026.9 -9.9 -9.999 -99.9 -99.99 -9.99
2020/01/24 20:36 EST    3.93   4.43    4   55    5  38.1  39.6 1026.8 -9.9 -9.999 -99.9 -99.99 -9.99
2020/01/24 20:42 EST    4.16   4.72    3   51    4  38.1  39.6 1026.8 -9.9 -9.999 -99.9 -99.99 -9.99
2020/01/24 20:48 EST    4.37   5.01    3   39    4  38.1  39.6 1026.8 -9.9 -9.999 -99.9 -99.99 -9.99
2020/01/24 20:54 EST    4.58   5.28    2   36    3  38.3  39.6 1026.7 -9.9 -9.999 -99.9 -99.99 -9.99
2020/01/24 21:00 EST    4.78   5.54    2   33    3  38.5  39.6 1026.7 -9.9 -9.999 -99.9 -99.99 -9.99
2020/01/24 21:06 EST    4.97   5.80    2   33    3  38.8  39.6 1026.7 -9.9 -9.999 -99.9 -99.99 -9.99
2020/01/24 21:12 EST    5.14   6.04    2   41    3  38.5  39.6 1026.7 -9.9 -9.999 -99.9 -99.99 -9.99
2020/01/24 21:18 EST    5.31   6.27    2   45    2  39.0  39.6 1026.6 -9.9 -9.999 -99.9 -99.99 -9.99
2020/01/24 21:24 EST    5.47   6.48    3   66    3  38.7  39.6 1026.6 -9.9 -9.999 -99.9 -99.99 -9.99
2020/01/24 21:30 EST    5.62   6.68    3   62    4  39.2  39.6 1026.5 -9.9 -9.999 -99.9 -99.99 -9.99
2020/01/24 21:36 EST    5.76   6.86    2   66    5  39.2  39.6 1026.4 -9.9 -9.999 -99.9 -99.99 -9.99
2020/01/24 21:42 EST    5.90   7.03    4   76    6  39.6  39.6 1026.3 -9.9 -9.999 -99.9 -99.99 -9.99
2020/01/24 21:48 EST    6.02   7.18    3   70    6  39.7  39.6 1026.3 -9.9 -9.999 -99.9 -99.99 -9.99
2020/01/24 21:54 EST    6.14   7.32    4   88    5  39.7  39.6 1026.3 -9.9 -9.999 -99.9 -99.99 -9.99
2020/01/24 22:00 EST    6.25   7.43    3   90    5  39.6  39.6 1026.1 -9.9 -9.999 -99.9 -99.99 -9.99
2020/01/24 22:06 EST    6.35   7.52    3   76    6  39.6  39.6 1026.1 -9.9 -9.999 -99.9 -99.99 -9.99
2020/01/24 22:12 EST    6.45   7.59    2   62    5  39.4  39.6 1026.1 -9.9 -9.999 -99.9 -99.99 -9.99
2020/01/24 22:18 EST    6.54   7.65    4   64    6  39.2  39.6 1026.1 -9.9 -9.999 -99.9 -99.99 -9.99
2020/01/24 22:24 EST    6.63   7.69    4   62    6  39.0  39.6 1026.0 -9.9 -9.999 -99.9 -99.99 -9.99
2020/01/24 22:30 EST    6.71   7.71    5   64    6  38.8  39.6 1026.0 -9.9 -9.999 -99.9 -99.99 -9.99
2020/01/24 22:36 EST    6.78   7.73    4   70    5  38.5  39.6 1026.1 -9.9 -9.999 -99.9 -99.99 -9.99
2020/01/24 22:42 EST    6.85   7.74    4   66    5  38.3  39.6 1026.1 -9.9 -9.999 -99.9 -99.99 -9.99
2020/01/24 22:48 EST    6.92   7.74    3   67    5  38.1  39.6 1026.1 -9.9 -9.999 -99.9 -99.99 -9.99
2020/01/24 22:54 EST    6.98   7.74    3   63    4  37.9  39.6 1026.1 -9.9 -9.999 -99.9 -99.99 -9.99
2020/01/24 23:00 EST    7.04   7.74    4   69    4  37.9  39.6 1025.9 -9.9 -9.999 -99.9 -99.99 -9.99
2020/01/24 23:06 EST    7.08   7.74    4   65    5  37.9  39.6 1025.9 -9.9 -9.999 -99.9 -99.99 -9.99
2020/01/24 23:12 EST    7.13   7.73    3   62    6  37.9  39.4 1026.0 -9.9 -9.999 -99.9 -99.99 -9.99
2020/01/24 23:18 EST    7.16   7.74    2   59    4  37.9  39.6 1026.0 -9.9 -9.999 -99.9 -99.99 -9.99
2020/01/24 23:24 EST    7.19   7.74    4   73    5  37.9  39.6 1025.8 -9.9 -9.999 -99.9 -99.99 -9.99
2020/01/24 23:30 EST    7.21   7.75    4   78    5  37.8  39.6 1025.7 -9.9 -9.999 -99.9 -99.99 -9.99
2020/01/24 23:36 EST    7.23   7.75    4   82    6  37.8  39.6 1025.8 -9.9 -9.999 -99.9 -99.99 -9.99
2020/01/24 23:42 EST    7.23   7.75    3   78    6  37.8  39.6 1025.8 -9.9 -9.999 -99.9 -99.99 -9.99
2020/01/24 23:48 EST    7.23   7.75    3   75    5  37.6  39.6 1025.7 -9.9 -9.999 -99.9 -99.99 -9.99
2020/01/24 23:54 EST    7.21   7.75    3   67    5  37.6  39.6 1025.8 -9.9 -9.999 -99.9 -99.99 -9.99
2020/01/25 00:00 EST    7.19   7.74    1  102    3  37.6  39.6 1025.9 -9.9 -9.999 -99.9 -99.99 -9.99
2020/01/25 00:06 EST    7.15   7.72    1   82    3  37.4  39.6 1025.8 -9.9 -9.999 -99.9 -99.99 -9.99
2020/01/25 00:12 EST    7.11   7.70    3   93    5  37.4  39.6 1025.6 -9.9 -9.999 -99.9 -99.99 -9.99
2020/01/25 00:18 EST    7.05   7.68    4   96    5  37.2  39.6 1025.3 -9.9 -9.999 -99.9 -99.99 -9.99
2020/01/25 00:24 EST    6.98   7.65    4   88    7  37.4  39.6 1025.1 -9.9 -9.999 -99.9 -99.99 -9.99
2020/01/25 00:30 EST    6.90   7.62    4   98    8  37.6  39.6 1025.2 -9.9 -9.999 -99.9 -99.99 -9.99
2020/01/25 00:36 EST    6.81   7.57    3   88    7  37.4  39.6 1025.2 -9.9 -9.999 -99.9 -99.99 -9.99
2020/01/25 00:42 EST    6.70   7.52    3   91    6  37.6  39.6 1025.1 -9.9 -9.999 -99.9 -99.99 -9.99
2020/01/25 00:48 EST    6.59   7.46    4   83    7  37.6  39.6 1024.9 -9.9 -9.999 -99.9 -99.99 -9.99
2020/01/25 00:54 EST    6.46   7.40    5   76    8  37.6  39.6 1024.8 -9.9 -9.999 -99.9 -99.99 -9.99
2020/01/25 01:00 EST    6.32   7.33    4   79    9  37.8  39.6 1024.7 -9.9 -9.999 -99.9 -99.99 -9.99
2020/01/25 01:06 EST    6.17   7.25    6   91   10  37.9  39.6 1024.7 -9.9 -9.999 -99.9 -99.99 -9.99
2020/01/25 01:12 EST    6.01   7.16    7   86   12  38.3  39.6 1024.8 -9.9 -9.999 -99.9 -99.99 -9.99
2020/01/25 01:18 EST    5.84   7.05    6  100   10  38.3  39.4 1024.8 -9.9 -9.999 -99.9 -99.99 -9.99
2020/01/25 01:24 EST    5.66   6.94    5   82   10  38.3  39.4 1024.7 -9.9 -9.999 -99.9 -99.99 -9.99
2020/01/25 01:30 EST    5.48   6.81    7  101   10  38.5  39.4 1024.8 -9.9 -9.999 -99.9 -99.99 -9.99
2020/01/25 01:36 EST    5.28   6.66    7   91   15  38.3  39.4 1024.8 -9.9 -9.999 -99.9 -99.99 -9.99
2020/01/25 01:42 EST    5.08   6.50    7   91   12  38.3  39.4 1024.8 -9.9 -9.999 -99.9 -99.99 -9.99
2020/01/25 01:48 EST    4.88   6.34    6   85   10  38.3  39.4 1024.7 -9.9 -9.999 -99.9 -99.99 -9.99
2020/01/25 01:54 EST    4.67   6.16    6   93   11  38.1  39.4 1024.5 -9.9 -9.999 -99.9 -99.99 -9.99
2020/01/25 02:00 EST    4.46   5.97    7  100   12  38.1  39.4 1024.4 -9.9 -9.999 -99.9 -99.99 -9.99
2020/01/25 02:06 EST    4.25   5.77    6   91   11  38.1  39.2 1024.2 -9.9 -9.999 -99.9 -99.99 -9.99
2020/01/25 02:12 EST    4.03   5.57    7   91   12  38.1  39.4 1024.1 -9.9 -9.999 -99.9 -99.99 -9.99
2020/01/25 02:18 EST    3.82   5.36    6   97   10  38.1  39.2 1024.1 -9.9 -9.999 -99.9 -99.99 -9.99
2020/01/25 02:24 EST    3.61   5.13    5   98   11  38.3  39.2 1024.2 -9.9 -9.999 -99.9 -99.99 -9.99
2020/01/25 02:30 EST    3.40   4.90    8   85   13  38.3  39.2 1024.0 -9.9 -9.999 -99.9 -99.99 -9.99
2020/01/25 02:36 EST    3.20   4.66    6   95   11  38.3  39.2 1023.7 -9.9 -9.999 -99.9 -99.99 -9.99
2020/01/25 02:42 EST    2.99   4.42    7   94   14  38.5  39.2 1023.7 -9.9 -9.999 -99.9 -99.99 -9.99
2020/01/25 02:48 EST    2.80   4.19    9   98   15  38.5  39.2 1023.6 -9.9 -9.999 -99.9 -99.99 -9.99
2020/01/25 02:54 EST    2.61   3.96    7   95   12  38.5  39.2 1023.6 -9.9 -9.999 -99.9 -99.99 -9.99
2020/01/25 03:00 EST    2.43   3.74    6   94   13  38.7  39.2 1023.5 -9.9 -9.999 -99.9 -99.99 -9.99
2020/01/25 03:06 EST    2.25   3.52    7   97   12  38.7  39.2 1023.2 -9.9 -9.999 -99.9 -99.99 -9.99
2020/01/25 03:12 EST    2.09   3.32    5   92   12  38.7  39.2 1023.1 -9.9 -9.999 -99.9 -99.99 -9.99
2020/01/25 03:18 EST    1.93   3.11    7   93   13  38.8  39.2 1023.1 -9.9 -9.999 -99.9 -99.99 -9.99
2020/01/25 03:24 EST    1.78   2.91    9   98   15  38.8  39.2 1022.8 -9.9 -9.999 -99.9 -99.99 -9.99
2020/01/25 03:30 EST    1.64   2.72   11   95   16  38.8  39.2 1022.4 -9.9 -9.999 -99.9 -99.99 -9.99
2020/01/25 03:36 EST    1.50   2.55    9   84   13  39.0  39.2 1022.2 -9.9 -9.999 -99.9 -99.99 -9.99
2020/01/25 03:42 EST    1.38   2.39    8   86   13  39.0  39.2 1022.2 -9.9 -9.999 -99.9 -99.99 -9.99
2020/01/25 03:48 EST    1.26   2.25    8   85   14  39.0  39.2 1022.3 -9.9 -9.999 -99.9 -99.99 -9.99
2020/01/25 03:54 EST    1.15   2.11   10   97   15  39.0  39.2 1022.3 -9.9 -9.999 -99.9 -99.99 -9.99
2020/01/25 04:00 EST    1.05   2.00    7   89   13  39.0  39.2 1022.3 -9.9 -9.999 -99.9 -99.99 -9.99
2020/01/25 04:06 EST    0.95   1.88   10   98   15  39.0  39.2 1022.1 -9.9 -9.999 -99.9 -99.99 -9.99
2020/01/25 04:12 EST    0.86   1.79    8   87   14  38.8  39.2 1022.0 -9.9 -9.999 -99.9 -99.99 -9.99
2020/01/25 04:18 EST    0.78   1.70    7   89   13  38.8  39.2 1021.9 -9.9 -9.999 -99.9 -99.99 -9.99
2020/01/25 04:24 EST    0.70   1.63    9   90   16  38.8  39.2 1022.0 -9.9 -9.999 -99.9 -99.99 -9.99
2020/01/25 04:30 EST    0.62   1.58    7   98   14  38.8  39.0 1022.1 -9.9 -9.999 -99.9 -99.99 -9.99
2020/01/25 04:36 EST    0.55   1.54   11  101   15  38.8  39.2 1022.1 -9.9 -9.999 -99.9 -99.99 -9.99
2020/01/25 04:42 EST    0.48   1.52    9   92   13  38.8  39.2 1022.1 -9.9 -9.999 -99.9 -99.99 -9.99
2020/01/25 04:48 EST    0.42   1.51    7   88   13  38.8  39.2 1022.1 -9.9 -9.999 -99.9 -99.99 -9.99
2020/01/25 04:54 EST    0.35   1.52    8   85   13  38.8  39.0 1022.2 -9.9 -9.999 -99.9 -99.99 -9.99
2020/01/25 05:00 EST    0.29   1.53   10   84   16  38.8  39.0 1021.7 -9.9 -9.999 -99.9 -99.99 -9.99
2020/01/25 05:06 EST    0.23   1.53   12   82   19  38.8  39.0 1021.5 -9.9 -9.999 -99.9 -99.99 -9.99
2020/01/25 05:12 EST    0.18   1.56   10   90   18  38.8  39.2 1021.6 -9.9 -9.999 -99.9 -99.99 -9.99
2020/01/25 05:18 EST    0.13   1.59    9   97   14  38.8  39.2 1021.7 -9.9 -9.999 -99.9 -99.99 -9.99
2020/01/25 05:24 EST    0.08   1.60   11   93   15  38.8  39.0 1021.6 -9.9 -9.999 -99.9 -99.99 -9.99
2020/01/25 05:30 EST    0.03   1.62    8   85   12  38.7  39.0 1021.5 -9.9 -9.999 -99.9 -99.99 -9.99
2020/01/25 05:36 EST   -0.01   1.61    9   91   17  38.7  39.0 1021.4 -9.9 -9.999 -99.9 -99.99 -9.99
2020/01/25 05:42 EST   -0.04   1.61    9   88   17  38.7  39.0 1021.4 -9.9 -9.999 -99.9 -99.99 -9.99
2020/01/25 05:48 EST   -0.07   1.64    9   90   13  38.7  39.0 1021.4 -9.9 -9.999 -99.9 -99.99 -9.99
2020/01/25 05:54 EST   -0.09   1.63    9   95   14  38.7  39.0 1021.2 -9.9 -9.999 -99.9 -99.99 -9.99
2020/01/25 06:00 EST   -0.10   1.63   11   85   18  38.7  39.0 1021.0 -9.9 -9.999 -99.9 -99.99 -9.99
2020/01/25 06:06 EST   -0.11   1.65   11   83   18  38.7  39.0 1021.0 -9.9 -9.999 -99.9 -99.99 -9.99
2020/01/25 06:12 EST   -0.10   1.66   10   96   15  38.7  39.0 1020.9 -9.9 -9.999 -99.9 -99.99 -9.99
2020/01/25 06:18 EST   -0.08   1.70   11   95   19  38.7  39.2 1021.0 -9.9 -9.999 -99.9 -99.99 -9.99
2020/01/25 06:24 EST   -0.05   1.76    8   87   14  38.7  39.0 1020.9 -9.9 -9.999 -99.9 -99.99 -9.99
2020/01/25 06:30 EST   -0.01   1.80   11  100   19  38.5  39.2 1020.7 -9.9 -9.999 -99.9 -99.99 -9.99
2020/01/25 06:36 EST    0.05   1.86    9  101   13  38.5  39.2 1020.6 -9.9 -9.999 -99.9 -99.99 -9.99
2020/01/25 06:42 EST    0.13   1.91   10   94   15  38.5  39.2 1020.6 -9.9 -9.999 -99.9 -99.99 -9.99
2020/01/25 06:48 EST    0.22   1.98   10   93   17  38.3  39.2 1020.6 -9.9 -9.999 -99.9 -99.99 -9.99
2020/01/25 06:54 EST    0.32   2.05    9   95   15  38.1  39.0 1020.6 -9.9 -9.999 -99.9 -99.99 -9.99
2020/01/25 07:00 EST    0.44   2.12   10   91   16  37.9  39.0 1020.5 -9.9 -9.999 -99.9 -99.99 -9.99
2020/01/25 07:06 EST    0.58   2.20    8   92   17  37.9  39.0 1020.4 -9.9 -9.999 -99.9 -99.99 -9.99
2020/01/25 07:12 EST    0.74   2.30    9   90   15  37.8  39.0 1020.4 -9.9 -9.999 -99.9 -99.99 -9.99
2020/01/25 07:18 EST    0.91   2.41    8  102   13  37.9  39.0 1020.4 -9.9 -9.999 -99.9 -99.99 -9.99
2020/01/25 07:24 EST    1.09   2.52    7   94   13  37.9  39.0 1020.3 -9.9 -9.999 -99.9 -99.99 -9.99
2020/01/25 07:30 EST    1.29   2.65    6   93   12  37.9  39.0 1020.5 -9.9 -9.999 -99.9 -99.99 -9.99
2020/01/25 07:36 EST    1.50   2.80    4   98   12  38.1  39.0 1020.5 -9.9 -9.999 -99.9 -99.99 -9.99
2020/01/25 07:42 EST    1.72   2.97    7   84   12  38.1  39.0 1020.4 -9.9 -9.999 -99.9 -99.99 -9.99
2020/01/25 07:48 EST    1.95   3.15    7   92   10  38.1  39.0 1020.4 -9.9 -9.999 -99.9 -99.99 -9.99
2020/01/25 07:54 EST    2.19   3.35    4   87   11  38.1  39.0 1020.2 -9.9 -9.999 -99.9 -99.99 -9.99
2020/01/25 08:00 EST    2.44   3.56    7   81   11  38.3  39.0 1020.1 -9.9 -9.999 -99.9 -99.99 -9.99
2020/01/25 08:06 EST    2.69   3.78    7   82   11  38.3  39.2 1020.1 -9.9 -9.999 -99.9 -99.99 -9.99
2020/01/25 08:12 EST    2.95   4.02    7   87   10  38.5  39.2 1020.0 -9.9 -9.999 -99.9 -99.99 -9.99
2020/01/25 08:18 EST    3.21   4.27    6   90   10  38.7  39.2 1020.0 -9.9 -9.999 -99.9 -99.99 -9.99
2020/01/25 08:24 EST    3.47   4.51    8   87   11  39.0  39.2 1020.1 -9.9 -9.999 -99.9 -99.99 -9.99
2020/01/25 08:30 EST    3.73   4.76    7   95   13  39.2  39.0 1020.1 -9.9 -9.999 -99.9 -99.99 -9.99
2020/01/25 08:36 EST    3.98   5.02    7   82   13  39.2  39.2 1019.8 -9.9 -9.999 -99.9 -99.99 -9.99
2020/01/25 08:42 EST    4.23   5.30    6   92   13  39.4  39.2 1019.7 -9.9 -9.999 -99.9 -99.99 -9.99
2020/01/25 08:48 EST    4.48   5.58    8   90   14  39.4  39.2 1019.6 -9.9 -9.999 -99.9 -99.99 -9.99
2020/01/25 08:54 EST    4.72   5.86    9   94   16  39.4  39.2 1019.3 -9.9 -9.999 -99.9 -99.99 -9.99
2020/01/25 09:00 EST    4.95   6.16    7   91   13  39.4  39.2 1019.2 -9.9 -9.999 -99.9 -99.99 -9.99
2020/01/25 09:06 EST    5.17   6.46    9   90   13  39.4  39.2 1019.2 -9.9 -9.999 -99.9 -99.99 -9.99
2020/01/25 09:12 EST    5.38   6.75    8   88   12  39.4  39.4 1019.0 -9.9 -9.999 -99.9 -99.99 -9.99
2020/01/25 09:18 EST    5.58   7.02    9   95   16  39.6  39.4 1018.9 -9.9 -9.999 -99.9 -99.99 -9.99
2020/01/25 09:24 EST    5.77   7.28    8   98   13  39.6  39.4 1018.7 -9.9 -9.999 -99.9 -99.99 -9.99
2020/01/25 09:30 EST    5.95   7.53    8   87   13  39.6  39.4 1018.6 -9.9 -9.999 -99.9 -99.99 -9.99
2020/01/25 09:36 EST    6.12   7.77    7  101   15  39.6  39.4 1018.5 -9.9 -9.999 -99.9 -99.99 -9.99
2020/01/25 09:42 EST    6.27   7.98    6   93   13  39.7  39.4 1018.3 -9.9 -9.999 -99.9 -99.99 -9.99
2020/01/25 09:48 EST    6.42   8.19   11   92   17  39.7  39.4 1018.0 -9.9 -9.999 -99.9 -99.99 -9.99
2020/01/25 09:54 EST    6.56   8.38    8   93   15  39.7  39.4 1017.9 -9.9 -9.999 -99.9 -99.99 -9.99
2020/01/25 10:00 EST    6.68   8.57    8   89   18  39.9  39.4 1017.8 -9.9 -9.999 -99.9 -99.99 -9.99
2020/01/25 10:06 EST    6.80   8.74    9   98   15  39.9  39.6 1017.5 -9.9 -9.999 -99.9 -99.99 -9.99
2020/01/25 10:12 EST    6.91   8.90   11   94   16  40.1  39.4 1017.3 -9.9 -9.999 -99.9 -99.99 -9.99
2020/01/25 10:18 EST    7.01   9.06    9   93   15  40.1  39.2 1017.0 -9.9 -9.999 -99.9 -99.99 -9.99
2020/01/25 10:24 EST    7.10   9.19    8  101   15  40.3  39.4 1016.9 -9.9 -9.999 -99.9 -99.99 -9.99
2020/01/25 10:30 EST    7.19   9.31    8  106   17  40.5  39.4 1016.7 -9.9 -9.999 -99.9 -99.99 -9.99
2020/01/25 10:36 EST    7.27   9.41   11   96   18  40.6  39.6 1016.2 -9.9 -9.999 -99.9 -99.99 -9.99
2020/01/25 10:42 EST    7.34   9.50    9   98   17  40.8  39.6 1016.1 -9.9 -9.999 -99.9 -99.99 -9.99
2020/01/25 10:48 EST    7.41   9.56    8   90   15  41.0  39.6 1016.0 -9.9 -9.999 -99.9 -99.99 -9.99
2020/01/25 10:54 EST    7.47   9.61    7  101   14  41.0  39.6 1016.2 -9.9 -9.999 -99.9 -99.99 -9.99
2020/01/25 11:00 EST    7.52   9.66    5  113   12  41.2  39.6 1016.3 -9.9 -9.999 -99.9 -99.99 -9.99
2020/01/25 11:06 EST    7.57   9.71    4  102   10  41.4  39.6 1016.0 -9.9 -9.999 -99.9 -99.99 -9.99
2020/01/25 11:12 EST    7.62   9.73    8  109   13  41.5  39.6 1015.9 -9.9 -9.999 -99.9 -99.99 -9.99
2020/01/25 11:18 EST    7.66   9.77    5   84    9  41.5  39.6 1015.5 -9.9 -9.999 -99.9 -99.99 -9.99
2020/01/25 11:24 EST    7.69   9.81    5  105   13  41.9  39.6 1015.4 -9.9 -9.999 -99.9 -99.99 -9.99
2020/01/25 11:30 EST    7.72   9.83    7  103   11  42.1  39.6 1015.2 -9.9 -9.999 -99.9 -99.99 -9.99
2020/01/25 11:36 EST    7.74   9.85    6  104   10  42.3  39.6 1014.9 -9.9 -9.999 -99.9 -99.99 -9.99
2020/01/25 11:42 EST    7.76   9.88    7   85   12  42.4  39.6 1014.5 -9.9 -9.999 -99.9 -99.99 -9.99
2020/01/25 11:48 EST    7.77   9.89    7  106   10  42.4  39.7 1014.2 -9.9 -9.999 -99.9 -99.99 -9.99
2020/01/25 11:54 EST    7.77   9.90    9  109   16  42.8  39.7 1013.8 -9.9 -9.999 -99.9 -99.99 -9.99
2020/01/25 12:00 EST    7.76   9.90    8   99   12  42.6  39.7 1013.0 -9.9 -9.999 -99.9 -99.99 -9.99
2020/01/25 12:06 EST    7.75   9.90    7   93   12  42.4  39.7 1012.7 -9.9 -9.999 -99.9 -99.99 -9.99
2020/01/25 12:12 EST    7.73   9.87    8   84   14  41.9  39.6 1012.6 -9.9 -9.999 -99.9 -99.99 -9.99
2020/01/25 12:18 EST    7.69   9.85    7   75   11  41.9  39.7 1012.3 -9.9 -9.999 -99.9 -99.99 -9.99
2020/01/25 12:24 EST    7.65   9.81    6   95   13  42.1  39.7 1012.2 -9.9 -9.999 -99.9 -99.99 -9.99
2020/01/25 12:30 EST    7.60   9.76    5   83   11  42.6  39.7 1012.0 -9.9 -9.999 -99.9 -99.99 -9.99
2020/01/25 12:36 EST    7.53   9.71    6  121   10  45.7  39.7 1011.7 -9.9 -9.999 -99.9 -99.99 -9.99
2020/01/25 12:42 EST    7.46   9.62    9  138   17  47.5  39.6 1011.4 -9.9 -9.999 -99.9 -99.99 -9.99
2020/01/25 12:48 EST    7.37   9.56    5  129   20  48.0  39.6 1011.3 -9.9 -9.999 -99.9 -99.99 -9.99
2020/01/25 12:54 EST    7.27   9.46    7  142   19  48.4  39.6 1011.5 -9.9 -9.999 -99.9 -99.99 -9.99
2020/01/25 13:00 EST    7.16   9.36    8  144   17  48.4  39.6 1011.2 -9.9 -9.999 -99.9 -99.99 -9.99
2020/01/25 13:06 EST    7.04   9.27    9  137   24  48.7  39.6 1010.7 -9.9 -9.999 -99.9 -99.99 -9.99
2020/01/25 13:12 EST    6.91   9.16    9  132   19  48.6  40.1 1010.6 -9.9 -9.999 -99.9 -99.99 -9.99
2020/01/25 13:18 EST    6.76   9.04    9  137   18  48.9  41.7 1010.5 -9.9 -9.999 -99.9 -99.99 -9.99
2020/01/25 13:24 EST    6.61   8.92   12  137   18  49.5  39.9 1010.2 -9.9 -9.999 -99.9 -99.99 -9.99
2020/01/25 13:30 EST    6.44   8.79   11  155   24  49.6  39.4 1010.1 -9.9 -9.999 -99.9 -99.99 -9.99
2020/01/25 13:36 EST    6.27   8.65   10  148   25  49.6  39.4 1009.9 -9.9 -9.999 -99.9 -99.99 -9.99
2020/01/25 13:42 EST    6.08   8.49   10  162   18  49.6  39.2 1009.7 -9.9 -9.999 -99.9 -99.99 -9.99
2020/01/25 13:48 EST    5.89   8.31   16  137   29  49.8  39.4 1009.4 -9.9 -9.999 -99.9 -99.99 -9.99
2020/01/25 13:54 EST    5.69   8.12   14  162   22  50.0  39.2 1009.2 -9.9 -9.999 -99.9 -99.99 -9.99
2020/01/25 14:00 EST    5.48   7.92   14  140   20  50.0  39.2 1008.9 -9.9 -9.999 -99.9 -99.99 -9.99
2020/01/25 14:06 EST    5.26   7.73   13  141   23  50.2  39.2 1008.8 -9.9 -9.999 -99.9 -99.99 -9.99
2020/01/25 14:12 EST    5.04   7.53   11  145   20  50.4  39.0 1008.8 -9.9 -9.999 -99.9 -99.99 -9.99
2020/01/25 14:18 EST    4.82   7.32   11  148   24  50.5  39.0 1008.8 -9.9 -9.999 -99.9 -99.99 -9.99
2020/01/25 14:24 EST    4.59   7.08   11  144   25  50.4  39.0 1008.1 -9.9 -9.999 -99.9 -99.99 -9.99
2020/01/25 14:30 EST    4.36   6.88   10  156   25  50.2  39.0 1008.4 -9.9 -9.999 -99.9 -99.99 -9.99
2020/01/25 14:36 EST    4.13   6.68    9  155   19  50.2  39.0 1008.2 -9.9 -9.999 -99.9 -99.99 -9.99
2020/01/25 14:42 EST    3.90   6.46   12  154   21  50.4  38.8 1008.0 -9.9 -9.999 -99.9 -99.99 -9.99
2020/01/25 14:48 EST    3.68   6.25   10  135   20  50.4  39.0 1008.2 -9.9 -9.999 -99.9 -99.99 -9.99
2020/01/25 14:54 EST    3.45   6.02    9  162   19  50.4  39.0 1008.0 -9.9 -9.999 -99.9 -99.99 -9.99
2020/01/25 15:00 EST    3.23   5.79   13  145   19  50.4  38.8 1007.7 -9.9 -9.999 -99.9 -99.99 -9.99
2020/01/25 15:06 EST    3.01   5.55   11  173   23  50.4  38.8 1008.4 -9.9 -9.999 -99.9 -99.99 -9.99
2020/01/25 15:12 EST    2.80   5.32   11  151   19  50.7  38.8 1008.4 -9.9 -9.999 -99.9 -99.99 -9.99
2020/01/25 15:18 EST    2.59   5.10   12  189   19  50.7  38.8 1008.7 -9.9 -9.999 -99.9 -99.99 -9.99
2020/01/25 15:24 EST    2.40   4.89   18  270   21  48.6  38.8 1010.0 -9.9 -9.999 -99.9 -99.99 -9.99
2020/01/25 15:30 EST    2.20   4.61   11  250   22  48.9  38.8 1009.7 -9.9 -9.999 -99.9 -99.99 -9.99
2020/01/25 15:36 EST    2.02   4.40   10  212   15  48.7  38.8 1009.3 -9.9 -9.999 -99.9 -99.99 -9.99
2020/01/25 15:42 EST    1.85   4.20    8  200   13  48.0  39.0 1009.3 -9.9 -9.999 -99.9 -99.99 -9.99
2020/01/25 15:48 EST    1.68   3.99    7  183   14  48.2  39.0 1009.2 -9.9 -9.999 -99.9 -99.99 -9.99
2020/01/25 15:54 EST    1.52   3.79    4  147    8  48.9  39.0 1008.8 -9.9 -9.999 -99.9 -99.99 -9.99
2020/01/25 16:00 EST    1.37   3.60    5  114    7  48.9  39.2 1008.4 -9.9 -9.999 -99.9 -99.99 -9.99
2020/01/25 16:06 EST    1.23   3.44    6   91   11  48.7  39.2 1008.3 -9.9 -9.999 -99.9 -99.99 -9.99
2020/01/25 16:12 EST    1.10   3.25    4   78    8  47.1  39.0 1008.5 -9.9 -9.999 -99.9 -99.99 -9.99
2020/01/25 16:18 EST    0.97   3.06    4   90    7  47.1  39.0 1008.3 -9.9 -9.999 -99.9 -99.99 -9.99
2020/01/25 16:24 EST    0.86   2.92    4  100    8  48.6  39.0 1008.2 -9.9 -9.999 -99.9 -99.99 -9.99
2020/01/25 16:30 EST    0.75   2.78    4  147    8  49.6  39.0 1008.1 -9.9 -9.999 -99.9 -99.99 -9.99
2020/01/25 16:36 EST    0.64   2.64    4  127    9  49.8  39.2 1008.1 -9.9 -9.999 -99.9 -99.99 -9.99
2020/01/25 16:42 EST    0.54   2.53    2  124    4  49.6  39.2 1008.3 -9.9 -9.999 -99.9 -99.99 -9.99
2020/01/25 16:48 EST    0.45   2.41    6   70    8  48.2  39.2 1007.5 -9.9 -9.999 -99.9 -99.99 -9.99
2020/01/25 16:54 EST    0.36   2.32    8   70   11  45.9  39.0 1007.3 -9.9 -9.999 -99.9 -99.99 -9.99
2020/01/25 17:00 EST    0.27   2.28    5   75   10  45.7  39.0 1007.6 -9.9 -9.999 -99.9 -99.99 -9.99
2020/01/25 17:06 EST    0.19   2.23    6   84    9  45.9  39.0 1007.5 -9.9 -9.999 -99.9 -99.99 -9.99
2020/01/25 17:12 EST    0.11   2.17    5  104    7  45.5  39.0 1007.8 -9.9 -9.999 -99.9 -99.99 -9.99
2020/01/25 17:18 EST    0.04   2.16    6  114    8  45.0  39.2 1007.8 -9.9 -9.999 -99.9 -99.99 -9.99
2020/01/25 17:24 EST   -0.03   2.16    3  108    7  44.6  39.2 1007.8 -9.9 -9.999 -99.9 -99.99 -9.99
2020/01/25 17:30 EST   -0.10   2.14    5   82    6  44.4  39.2 1007.7 -9.9 -9.999 -99.9 -99.99 -9.99
2020/01/25 17:36 EST   -0.17   2.13    6   74    8  44.1  39.0 1007.9 -9.9 -9.999 -99.9 -99.99 -9.99
2020/01/25 17:42 EST   -0.23   2.10    7   80    9  43.9  39.0 1007.8 -9.9 -9.999 -99.9 -99.99 -9.99
2020/01/25 17:48 EST   -0.29   2.08    5   66    8  43.3  39.0 1007.9 -9.9 -9.999 -99.9 -99.99 -9.99
2020/01/25 17:54 EST   -0.35   2.06    6   75    7  42.8  39.0 1007.8 -9.9 -9.999 -99.9 -99.99 -9.99
2020/01/25 18:00 EST   -0.40   2.04    4   73    6  42.8  39.2 1007.9 -9.9 -9.999 -99.9 -99.99 -9.99
2020/01/25 18:06 EST   -0.45   1.99    5   61    6  42.3  39.2 1007.8 -9.9 -9.999 -99.9 -99.99 -9.99
2020/01/25 18:12 EST   -0.49   1.94    5   64    6  42.3  39.2 1007.8 -9.9 -9.999 -99.9 -99.99 -9.99
2020/01/25 18:18 EST   -0.52   1.89    3   73    5  43.0  39.0 1007.8 -9.9 -9.999 -99.9 -99.99 -9.99
2020/01/25 18:24 EST   -0.55   1.83    1   73    3  42.8  39.2 1007.9 -9.9 -9.999 -99.9 -99.99 -9.99
2020/01/25 18:30 EST   -0.56   1.78    2   26    3  41.5  39.2 1007.9 -9.9 -9.999 -99.9 -99.99 -9.99
2020/01/25 18:36 EST   -0.57   1.74    4   36    4  41.2  39.2 1007.9 -9.9 -9.999 -99.9 -99.99 -9.99
2020/01/25 18:42 EST   -0.56   1.70    2   84    4  41.7  39.4 1007.8 -9.9 -9.999 -99.9 -99.99 -9.99
2020/01/25 18:48 EST   -0.54   1.67    4   53    5  41.0  39.4 1007.8 -9.9 -9.999 -99.9 -99.99 -9.99
2020/01/25 18:54 EST   -0.51   1.65    2   45    3  40.8  39.4 1007.8 -9.9 -9.999 -99.9 -99.99 -9.99
2020/01/25 19:00 EST   -0.46   1.65    3   54    4  41.2  39.4 1007.7 -9.9 -9.999 -99.9 -99.99 -9.99
2020/01/25 19:06 EST   -0.40   1.66    3   33    3  41.2  39.4 1007.8 -9.9 -9.999 -99.9 -99.99 -9.99
2020/01/25 19:12 EST   -0.32   1.69    2  345    3  41.0  39.4 1007.9 -9.9 -9.999 -99.9 -99.99 -9.99
2020/01/25 19:18 EST   -0.22   1.76    1  334    3  40.8  39.4 1007.7 -9.9 -9.999 -99.9 -99.99 -9.99
2020/01/25 19:24 EST   -0.11 -99.99 -999 -999 -999 -99.9 -99.9 -999.9 -9.9 -9.999 -99.9 -99.99 -9.99
2020/01/25 19:30 EST    0.02 -99.99 -999 -999 -999 -99.9 -99.9 -999.9 -9.9 -9.999 -99.9 -99.99 -9.99
2020/01/25 19:36 EST    0.16   2.08 -999 -999 -999 -99.9 -99.9 -999.9 -9.9 -9.999 -99.9 -99.99 -9.99
2020/01/25 19:42 EST    0.32   2.22    3  256    4  41.7  39.4 1007.9 -9.9 -9.999 -99.9 -99.99 -9.99
2020/01/25 19:48 EST    0.49   2.37    4  271    5  43.5  39.2 1008.0 -9.9 -9.999 -99.9 -99.99 -9.99
2020/01/25 19:54 EST    0.68   2.53    6  283    9  44.1  39.2 1008.0 -9.9 -9.999 -99.9 -99.99 -9.99
2020/01/25 20:00 EST    0.88   2.66   10  298   11  45.1  39.0 1008.0 -9.9 -9.999 -99.9 -99.99 -9.99
2020/01/25 20:06 EST    1.09   2.84   11  290   15  45.0  39.2 1008.1 -9.9 -9.999 -99.9 -99.99 -9.99
2020/01/25 20:12 EST    1.32   3.03   14  294   16  46.0  39.0 1008.1 -9.9 -9.999 -99.9 -99.99 -9.99
2020/01/25 20:18 EST    1.55   3.25   13  298   18  46.2  39.0 1008.1 -9.9 -9.999 -99.9 -99.99 -9.99
2020/01/25 20:24 EST    1.79   3.48   12  305   16  45.5  39.0 1008.2 -9.9 -9.999 -99.9 -99.99 -9.99
2020/01/25 20:30 EST    2.04   3.73   15  302   18  45.5  39.0 1008.2 -9.9 -9.999 -99.9 -99.99 -9.99
2020/01/25 20:36 EST    2.29   4.00   15  304   17  45.1  39.0 1008.1 -9.9 -9.999 -99.9 -99.99 -9.99
2020/01/25 20:42 EST    2.54   4.27   13  312   19  44.6  39.0 1008.1 -9.9 -9.999 -99.9 -99.99 -9.99
2020/01/25 20:48 EST    2.79   4.53   14  306   16  44.4  39.2 1008.1 -9.9 -9.999 -99.9 -99.99 -9.99
2020/01/25 20:54 EST    3.05   4.81   12  308   15  44.4  39.2 1008.2 -9.9 -9.999 -99.9 -99.99 -9.99
2020/01/25 21:00 EST    3.30   5.10    8  309   11  43.9  39.2 1008.3 -9.9 -9.999 -99.9 -99.99 -9.99
2020/01/25 21:06 EST    3.54   5.35    6  315    9  43.5  39.2 1008.2 -9.9 -9.999 -99.9 -99.99 -9.99
2020/01/25 21:12 EST    3.79   5.61   11  328   12  44.1  39.2 1008.3 -9.9 -9.999 -99.9 -99.99 -9.99
2020/01/25 21:18 EST    4.02   5.85   13  331   16  44.1  39.4 1008.5 -9.9 -9.999 -99.9 -99.99 -9.99
2020/01/25 21:24 EST    4.25   6.09   10  319   13  43.7  39.2 1008.6 -9.9 -9.999 -99.9 -99.99 -9.99
2020/01/25 21:30 EST    4.47   6.31   10  313   12  43.5  39.2 1008.7 -9.9 -9.999 -99.9 -99.99 -9.99
2020/01/25 21:36 EST    4.68   6.51   11  318   13  43.5  39.2 1008.7 -9.9 -9.999 -99.9 -99.99 -9.99
2020/01/25 21:42 EST    4.88   6.71   10  322   12  43.5  39.2 1008.7 -9.9 -9.999 -99.9 -99.99 -9.99
2020/01/25 21:48 EST    5.07   6.90   11  333   14  43.5  39.2 1008.7 -9.9 -9.999 -99.9 -99.99 -9.99
2020/01/25 21:54 EST    5.25   7.07    7  317   12  43.2  39.2 1008.7 -9.9 -9.999 -99.9 -99.99 -9.99
2020/01/25 22:00 EST    5.42   7.23    9  322   11  43.2  39.2 1008.7 -9.9 -9.999 -99.9 -99.99 -9.99
2020/01/25 22:06 EST    5.57   7.38    7  314   11  43.2  39.2 1008.6 -9.9 -9.999 -99.9 -99.99 -9.99
2020/01/25 22:12 EST    5.72   7.50    7  320   10  43.0  39.2 1008.7 -9.9 -9.999 -99.9 -99.99 -9.99
2020/01/25 22:18 EST    5.86   7.62    6  323    9  42.8  39.2 1008.8 -9.9 -9.999 -99.9 -99.99 -9.99
2020/01/25 22:24 EST    5.99   7.73    6  320    9  43.0  39.2 1008.8 -9.9 -9.999 -99.9 -99.99 -9.99
2020/01/25 22:30 EST    6.11   7.81    6  315    8  42.8  39.2 1008.8 -9.9 -9.999 -99.9 -99.99 -9.99
2020/01/25 22:36 EST    6.22   7.89    8  313   11  43.2  39.2 1008.9 -9.9 -9.999 -99.9 -99.99 -9.99
2020/01/25 22:42 EST    6.32   7.97    5  300   10  43.0  39.2 1009.0 -9.9 -9.999 -99.9 -99.99 -9.99
2020/01/25 22:48 EST    6.42   8.04    5  305    7  42.6  39.4 1009.1 -9.9 -9.999 -99.9 -99.99 -9.99
2020/01/25 22:54 EST    6.51   8.10    6  314    9  42.6  39.4 1009.1 -9.9 -9.999 -99.9 -99.99 -9.99
2020/01/25 23:00 EST    6.59   8.17    7  320   10  42.8  39.4 1009.1 -9.9 -9.999 -99.9 -99.99 -9.99
2020/01/25 23:06 EST    6.67   8.22    8  327   11  43.0  39.4 1009.1 -9.9 -9.999 -99.9 -99.99 -9.99
2020/01/25 23:12 EST    6.74   8.25    6  323    9  42.6  39.2 1009.1 -9.9 -9.999 -99.9 -99.99 -9.99
2020/01/25 23:18 EST    6.80   8.29    6  323    7  42.4  39.2 1009.1 -9.9 -9.999 -99.9 -99.99 -9.99
2020/01/25 23:24 EST    6.86   8.33    6  331    8  42.1  39.2 1009.1 -9.9 -9.999 -99.9 -99.99 -9.99
2020/01/25 23:30 EST    6.92   8.35    4  330    6  41.9  39.2 1009.1 -9.9 -9.999 -99.9 -99.99 -9.99
2020/01/25 23:36 EST    6.97   8.37    6  334    8  42.4  39.4 1009.0 -9.9 -9.999 -99.9 -99.99 -9.99
2020/01/25 23:42 EST    7.01   8.39    4  323    5  42.1  39.4 1009.0 -9.9 -9.999 -99.9 -99.99 -9.99
2020/01/25 23:48 EST    7.05   8.41    5  329    6  42.1  39.4 1009.0 -9.9 -9.999 -99.9 -99.99 -9.99
2020/01/25 23:54 EST    7.09   8.41    6  324    8  42.1  39.4 1009.0 -9.9 -9.999 -99.9 -99.99 -9.99
2020/01/26 00:00 EST    7.11   8.40    7  327    8  41.9  39.4 1009.0 -9.9 -9.999 -99.9 -99.99 -9.99
2020/01/26 00:06 EST    7.14   8.39    5  322    7  41.5  39.2 1008.9 -9.9 -9.999 -99.9 -99.99 -9.99
2020/01/26 00:12 EST    7.15   8.37    5  322    7  41.7  39.4 1008.9 -9.9 -9.999 -99.9 -99.99 -9.99
2020/01/26 00:18 EST    7.16   8.34    6  310    7  41.7  39.4 1008.9 -9.9 -9.999 -99.9 -99.99 -9.99
2020/01/26 00:24 EST    7.16   8.30    6  312    8  41.9  39.4 1008.9 -9.9 -9.999 -99.9 -99.99 -9.99
2020/01/26 00:30 EST    7.16   8.26    6  300    7  41.9  39.4 1008.9 -9.9 -9.999 -99.9 -99.99 -9.99
2020/01/26 00:36 EST    7.14   8.20    6  316    7  41.7  39.4 1008.7 -9.9 -9.999 -99.9 -99.99 -9.99
2020/01/26 00:42 EST    7.12   8.16    6  305    7  41.7  39.4 1008.8 -9.9 -9.999 -99.9 -99.99 -9.99
2020/01/26 00:48 EST    7.09   8.12    5  300    6  41.5  39.2 1008.8 -9.9 -9.999 -99.9 -99.99 -9.99
2020/01/26 00:54 EST    7.04   8.05    6  304    7  41.5  39.2 1008.8 -9.9 -9.999 -99.9 -99.99 -9.99
2020/01/26 01:00 EST    6.99   7.99    7  299    9  41.7  39.2 1008.8 -9.9 -9.999 -99.9 -99.99 -9.99
2020/01/26 01:06 EST    6.92   7.93    8  299    9  41.5  39.2 1008.8 -9.9 -9.999 -99.9 -99.99 -9.99
2020/01/26 01:12 EST    6.85   7.86    8  304    9  41.5  39.2 1008.9 -9.9 -9.999 -99.9 -99.99 -9.99
2020/01/26 01:18 EST    6.76   7.79    9  301   10  41.7  39.2 1008.9 -9.9 -9.999 -99.9 -99.99 -9.99
2020/01/26 01:24 EST    6.66   7.70    8  299   10  41.4  39.2 1009.0 -9.9 -9.999 -99.9 -99.99 -9.99
2020/01/26 01:30 EST    6.55   7.60    7  300    8  41.2  39.2 1009.1 -9.9 -9.999 -99.9 -99.99 -9.99
2020/01/26 01:36 EST    6.43   7.48    9  305   10  41.4  39.2 1009.1 -9.9 -9.999 -99.9 -99.99 -9.99
2020/01/26 01:42 EST    6.30   7.37   10  314   12  41.5  39.2 1009.2 -9.9 -9.999 -99.9 -99.99 -9.99
2020/01/26 01:48 EST    6.15   7.22    8  310   13  41.5  39.2 1009.3 -9.9 -9.999 -99.9 -99.99 -9.99
2020/01/26 01:54 EST    6.00   7.08    8  312   10  41.4  39.2 1009.3 -9.9 -9.999 -99.9 -99.99 -9.99
2020/01/26 02:00 EST    5.84   6.90    7  309   12  41.2  39.2 1009.3 -9.9 -9.999 -99.9 -99.99 -9.99
2020/01/26 02:06 EST    5.66   6.73    8  309   10  41.2  39.2 1009.3 -9.9 -9.999 -99.9 -99.99 -9.99
2020/01/26 02:12 EST    5.48   6.54    7  309   11  41.0  39.2 1009.3 -9.9 -9.999 -99.9 -99.99 -9.99
2020/01/26 02:18 EST    5.29   6.36    9  322   11  41.4  39.2 1009.3 -9.9 -9.999 -99.9 -99.99 -9.99
2020/01/26 02:24 EST    5.10   6.15    9  316   12  41.2  39.2 1009.3 -9.9 -9.999 -99.9 -99.99 -9.99
2020/01/26 02:30 EST    4.89   5.93    8  320   11  41.2  39.2 1009.3 -9.9 -9.999 -99.9 -99.99 -9.99
2020/01/26 02:36 EST    4.69   5.70    7  320   11  41.4  39.2 1009.2 -9.9 -9.999 -99.9 -99.99 -9.99
2020/01/26 02:42 EST    4.48   5.48    7  332    9  41.0  39.2 1009.1 -9.9 -9.999 -99.9 -99.99 -9.99
2020/01/26 02:48 EST    4.26   5.24    6  329    8  40.8  39.2 1009.0 -9.9 -9.999 -99.9 -99.99 -9.99
2020/01/26 02:54 EST    4.05   5.02    6  313    8  40.6  39.0 1009.1 -9.9 -9.999 -99.9 -99.99 -9.99
2020/01/26 03:00 EST    3.83   4.78    6  309    8  40.6  39.0 1009.3 -9.9 -9.999 -99.9 -99.99 -9.99
2020/01/26 03:06 EST    3.62   4.54    7  314    9  40.6  39.2 1009.2 -9.9 -9.999 -99.9 -99.99 -9.99
2020/01/26 03:12 EST    3.41   4.30    7  310    9  40.6  39.0 1009.3 -9.9 -9.999 -99.9 -99.99 -9.99
2020/01/26 03:18 EST    3.20   4.08    6  307    8  40.3  39.0 1009.3 -9.9 -9.999 -99.9 -99.99 -9.99
2020/01/26 03:24 EST    2.99   3.85    7  308    9  40.5  39.0 1009.3 -9.9 -9.999 -99.9 -99.99 -9.99
2020/01/26 03:30 EST    2.79   3.62    6  301   10  40.5  39.0 1009.4 -9.9 -9.999 -99.9 -99.99 -9.99
2020/01/26 03:36 EST    2.59   3.39    5  299    7  40.3  39.0 1009.3 -9.9 -9.999 -99.9 -99.99 -9.99
2020/01/26 03:42 EST    2.41   3.16    5  297    6  40.3  39.0 1009.3 -9.9 -9.999 -99.9 -99.99 -9.99
2020/01/26 03:48 EST    2.23   2.95    7  301    8  40.6  39.0 1009.3 -9.9 -9.999 -99.9 -99.99 -9.99
2020/01/26 03:54 EST    2.05   2.73    6  296   10  40.5  39.0 1009.4 -9.9 -9.999 -99.9 -99.99 -9.99
2020/01/26 04:00 EST    1.89   2.53    5  289    8  40.3  39.0 1009.3 -9.9 -9.999 -99.9 -99.99 -9.99
2020/01/26 04:06 EST    1.73   2.31    6  296    8  40.5  39.0 1009.3 -9.9 -9.999 -99.9 -99.99 -9.99
2020/01/26 04:12 EST    1.59   2.12    7  299    9  40.5  39.0 1009.3 -9.9 -9.999 -99.9 -99.99 -9.99
2020/01/26 04:18 EST    1.45   1.92    6  296    9  40.3  39.0 1009.4 -9.9 -9.999 -99.9 -99.99 -9.99
2020/01/26 04:24 EST    1.32   1.74    8  295   10  40.5  38.8 1009.4 -9.9 -9.999 -99.9 -99.99 -9.99
2020/01/26 04:30 EST    1.20   1.55    9  297   11  40.5  38.8 1009.4 -9.9 -9.999 -99.9 -99.99 -9.99
2020/01/26 04:36 EST    1.09   1.38   10  296   12  40.6  38.8 1009.4 -9.9 -9.999 -99.9 -99.99 -9.99
2020/01/26 04:42 EST    0.99   1.22    8  305   11  40.3  38.8 1009.4 -9.9 -9.999 -99.9 -99.99 -9.99
2020/01/26 04:48 EST    0.90   1.11    9  310   12  40.3  39.0 1009.4 -9.9 -9.999 -99.9 -99.99 -9.99
2020/01/26 04:54 EST    0.81   1.01    9  308   11  40.3  38.8 1009.5 -9.9 -9.999 -99.9 -99.99 -9.99
2020/01/26 05:00 EST    0.73   0.90    9  307   10  40.3  38.8 1009.5 -9.9 -9.999 -99.9 -99.99 -9.99
2020/01/26 05:06 EST    0.66   0.84    8  313   10  40.1  39.0 1009.4 -9.9 -9.999 -99.9 -99.99 -9.99
2020/01/26 05:12 EST    0.59   0.80    9  317   11  40.1  39.0 1009.4 -9.9 -9.999 -99.9 -99.99 -9.99
2020/01/26 05:18 EST    0.53   0.76    9  312   11  40.1  38.8 1009.4 -9.9 -9.999 -99.9 -99.99 -9.99
2020/01/26 05:24 EST    0.47   0.73    8  312   11  39.7  39.0 1009.4 -9.9 -9.999 -99.9 -99.99 -9.99
2020/01/26 05:30 EST    0.42   0.73    9  314   11  39.7  39.0 1009.3 -9.9 -9.999 -99.9 -99.99 -9.99
2020/01/26 05:36 EST    0.37   0.71   10  310   11  39.9  39.0 1009.4 -9.9 -9.999 -99.9 -99.99 -9.99
2020/01/26 05:42 EST    0.33   0.70    7  301    9  39.7  39.0 1009.5 -9.9 -9.999 -99.9 -99.99 -9.99
2020/01/26 05:48 EST    0.28   0.69    7  299   10  39.6  39.0 1009.5 -9.9 -9.999 -99.9 -99.99 -9.99
2020/01/26 05:54 EST    0.24   0.68    6  304    8  39.6  39.0 1009.5 -9.9 -9.999 -99.9 -99.99 -9.99
2020/01/26 06:00 EST    0.21   0.67    6  301    8  39.6  38.8 1009.6 -9.9 -9.999 -99.9 -99.99 -9.99
2020/01/26 06:06 EST    0.17   0.67    6  298    8  39.6  39.0 1009.7 -9.9 -9.999 -99.9 -99.99 -9.99
2020/01/26 06:12 EST    0.14   0.66    7  302    9  39.6  38.8 1009.7 -9.9 -9.999 -99.9 -99.99 -9.99
2020/01/26 06:18 EST    0.11   0.62    7  298   10  39.7  39.0 1009.8 -9.9 -9.999 -99.9 -99.99 -9.99
2020/01/26 06:24 EST    0.09   0.63    6  295    8  39.6  39.0 1009.9 -9.9 -9.999 -99.9 -99.99 -9.99
2020/01/26 06:30 EST    0.07   0.64    6  293    8  39.6  39.0 1009.9 -9.9 -9.999 -99.9 -99.99 -9.99
2020/01/26 06:36 EST    0.06   0.64    6  295    7  39.6  39.0 1010.0 -9.9 -9.999 -99.9 -99.99 -9.99
2020/01/26 06:42 EST    0.06   0.66    5  292    7  39.4  39.0 1010.0 -9.9 -9.999 -99.9 -99.99 -9.99
2020/01/26 06:48 EST    0.06   0.68    7  290    8  39.6  39.0 1010.0 -9.9 -9.999 -99.9 -99.99 -9.99
2020/01/26 06:54 EST    0.07   0.72    6  289    6  39.4  38.8 1010.1 -9.9 -9.999 -99.9 -99.99 -9.99
2020/01/26 07:00 EST    0.09   0.77    6  289    8  39.4  38.8 1010.1 -9.9 -9.999 -99.9 -99.99 -9.99
2020/01/26 07:06 EST    0.12   0.84    6  292    8  39.6  38.8 1010.1 -9.9 -9.999 -99.9 -99.99 -9.99
2020/01/26 07:12 EST    0.16   0.91    8  295    9  39.6  38.8 1010.2 -9.9 -9.999 -99.9 -99.99 -9.99
2020/01/26 07:18 EST    0.22   1.00    8  299   10  39.6  38.8 1010.3 -9.9 -9.999 -99.9 -99.99 -9.99
2020/01/26 07:24 EST    0.28   1.09    8  301   10  39.6  38.8 1010.4 -9.9 -9.999 -99.9 -99.99 -9.99
2020/01/26 07:30 EST    0.37   1.21    7  305    9  39.4  38.8 1010.3 -9.9 -9.999 -99.9 -99.99 -9.99
2020/01/26 07:36 EST    0.46   1.33    7  308    8  39.2  38.8 1010.3 -9.9 -9.999 -99.9 -99.99 -9.99
2020/01/26 07:42 EST    0.57   1.47    8  308   10  39.4  38.8 1010.4 -9.9 -9.999 -99.9 -99.99 -9.99
2020/01/26 07:48 EST    0.70   1.61    6  300    9  39.4  38.8 1010.4 -9.9 -9.999 -99.9 -99.99 -9.99
2020/01/26 07:54 EST    0.84   1.76    7  303    8  39.4  38.8 1010.5 -9.9 -9.999 -99.9 -99.99 -9.99
2020/01/26 08:00 EST    1.00   1.92    9  304   11  39.4  38.8 1010.4 -9.9 -9.999 -99.9 -99.99 -9.99
2020/01/26 08:06 EST    1.17   2.10    9  301   12  39.4  38.8 1010.3 -9.9 -9.999 -99.9 -99.99 -9.99
2020/01/26 08:12 EST    1.35   2.28    9  303   10  39.4  38.7 1010.3 -9.9 -9.999 -99.9 -99.99 -9.99
2020/01/26 08:18 EST    1.55   2.48   10  302   12  39.4  38.7 1010.3 -9.9 -9.999 -99.9 -99.99 -9.99
2020/01/26 08:24 EST    1.76   2.66    9  305   11  39.2  38.8 1010.3 -9.9 -9.999 -99.9 -99.99 -9.99
2020/01/26 08:30 EST    1.98   2.86    8  298   11  39.4  38.8 1010.3 -9.9 -9.999 -99.9 -99.99 -9.99
2020/01/26 08:36 EST    2.21   3.08    9  302   10  39.6  38.8 1010.4 -9.9 -9.999 -99.9 -99.99 -9.99
2020/01/26 08:42 EST    2.45   3.30   10  300   11  39.6  38.8 1010.4 -9.9 -9.999 -99.9 -99.99 -9.99
2020/01/26 08:48 EST    2.69   3.52   10  303   11  39.7  38.8 1010.3 -9.9 -9.999 -99.9 -99.99 -9.99
2020/01/26 08:54 EST    2.94   3.74    9  301   11  39.7  38.8 1010.3 -9.9 -9.999 -99.9 -99.99 -9.99
2020/01/26 09:00 EST    3.19   3.97    9  304   11  39.7  38.8 1010.3 -9.9 -9.999 -99.9 -99.99 -9.99
2020/01/26 09:06 EST    3.45   4.19    9  303   12  39.7  38.8 1010.3 -9.9 -9.999 -99.9 -99.99 -9.99
2020/01/26 09:12 EST    3.70   4.41   10  304   12  39.7  38.8 1010.3 -9.9 -9.999 -99.9 -99.99 -9.99
2020/01/26 09:18 EST    3.95   4.64   10  304   11  39.9  39.0 1010.3 -9.9 -9.999 -99.9 -99.99 -9.99
2020/01/26 09:24 EST    4.20   4.86    9  310   12  40.1  39.0 1010.3 -9.9 -9.999 -99.9 -99.99 -9.99
2020/01/26 09:30 EST    4.44   5.07   11  306   13  40.3  39.0 1010.2 -9.9 -9.999 -99.9 -99.99 -9.99
2020/01/26 09:36 EST    4.68   5.28   10  304   13  40.3  39.0 1010.2 -9.9 -9.999 -99.9 -99.99 -9.99
2020/01/26 09:42 EST    4.91   5.50   10  306   12  40.3  39.0 1010.2 -9.9 -9.999 -99.9 -99.99 -9.99
2020/01/26 09:48 EST    5.13   5.71   10  306   12  40.3  39.2 1010.2 -9.9 -9.999 -99.9 -99.99 -9.99
2020/01/26 09:54 EST    5.34   5.92   11  302   14  40.3  39.2 1010.2 -9.9 -9.999 -99.9 -99.99 -9.99
2020/01/26 10:00 EST    5.54   6.11   10  308   13  40.1  39.2 1010.2 -9.9 -9.999 -99.9 -99.99 -9.99
2020/01/26 10:06 EST    5.73   6.32   11  301   14  40.3  39.2 1010.2 -9.9 -9.999 -99.9 -99.99 -9.99
2020/01/26 10:12 EST    5.91   6.50   11  307   13  40.3  39.2 1010.2 -9.9 -9.999 -99.9 -99.99 -9.99
2020/01/26 10:18 EST    6.08   6.69   13  299   16  40.6  39.2 1010.2 -9.9 -9.999 -99.9 -99.99 -9.99
2020/01/26 10:24 EST    6.23   6.86   11  304   13  40.5  39.2 1010.2 -9.9 -9.999 -99.9 -99.99 -9.99
2020/01/26 10:30 EST    6.38   7.04   12  308   16  40.6  39.4 1010.2 -9.9 -9.999 -99.9 -99.99 -9.99
2020/01/26 10:36 EST    6.51   7.20   12  302   15  40.6  39.4 1010.1 -9.9 -9.999 -99.9 -99.99 -9.99
2020/01/26 10:42 EST    6.63   7.37   10  302   14  40.6  39.4 1010.0 -9.9 -9.999 -99.9 -99.99 -9.99
2020/01/26 10:48 EST    6.75   7.52   12  304   14  40.8  39.4 1010.0 -9.9 -9.999 -99.9 -99.99 -9.99
2020/01/26 10:54 EST    6.85   7.67   12  310   15  41.2  39.4 1009.9 -9.9 -9.999 -99.9 -99.99 -9.99
2020/01/26 11:00 EST    6.94   7.81   10  293   17  41.4  39.4 1009.9 -9.9 -9.999 -99.9 -99.99 -9.99
2020/01/26 11:06 EST    7.03   7.93   12  305   15  41.4  39.4 1009.8 -9.9 -9.999 -99.9 -99.99 -9.99
2020/01/26 11:12 EST    7.10   8.03   11  308   14  41.5  39.4 1009.7 -9.9 -9.999 -99.9 -99.99 -9.99
2020/01/26 11:18 EST    7.17   8.11   16  309   19  41.9  39.4 1009.5 -9.9 -9.999 -99.9 -99.99 -9.99
2020/01/26 11:24 EST    7.24   8.17   11  314   15  41.9  39.4 1009.6 -9.9 -9.999 -99.9 -99.99 -9.99
2020/01/26 11:30 EST    7.29   8.23   12  320   15  41.9  39.4 1009.4 -9.9 -9.999 -99.9 -99.99 -9.99
2020/01/26 11:36 EST    7.34   8.25   10  304   16  42.1  39.4 1009.3 -9.9 -9.999 -99.9 -99.99 -9.99
2020/01/26 11:42 EST    7.39   8.25   15  307   18  42.3  39.4 1009.3 -9.9 -9.999 -99.9 -99.99 -9.99
2020/01/26 11:48 EST    7.43   8.26   11  314   17  42.3  39.4 1009.2 -9.9 -9.999 -99.9 -99.99 -9.99
2020/01/26 11:54 EST    7.46   8.26   14  322   17  42.4  39.4 1009.1 -9.9 -9.999 -99.9 -99.99 -9.99
2020/01/26 12:00 EST    7.49   8.26   15  333   20  42.3  39.2 1009.1 -9.9 -9.999 -99.9 -99.99 -9.99
2020/01/26 12:06 EST    7.51   8.24   12  338   18  42.4  39.4 1009.0 -9.9 -9.999 -99.9 -99.99 -9.99
2020/01/26 12:12 EST    7.53   8.23   11  329   14  42.6  39.4 1008.9 -9.9 -9.999 -99.9 -99.99 -9.99
2020/01/26 12:18 EST    7.55   8.22   14  321   16  43.3  39.4 1008.7 -9.9 -9.999 -99.9 -99.99 -9.99
2020/01/26 12:24 EST    7.55   8.20   13  320   16  43.3  39.4 1008.7 -9.9 -9.999 -99.9 -99.99 -9.99
2020/01/26 12:30 EST    7.56   8.17   12  324   15  43.2  39.4 1008.6 -9.9 -9.999 -99.9 -99.99 -9.99
2020/01/26 12:36 EST    7.55   8.16   14  308   17  43.2  39.4 1008.5 -9.9 -9.999 -99.9 -99.99 -9.99
2020/01/26 12:42 EST    7.54   8.14   13  310   17  43.0  39.6 1008.5 -9.9 -9.999 -99.9 -99.99 -9.99
2020/01/26 12:48 EST    7.52   8.11   11  342   15  43.2  39.6 1008.5 -9.9 -9.999 -99.9 -99.99 -9.99
2020/01/26 12:54 EST    7.50   8.09   11  340   16  43.2  39.6 1008.4 -9.9 -9.999 -99.9 -99.99 -9.99
2020/01/26 13:00 EST    7.46   8.06   14  346   15  43.5  39.6 1008.3 -9.9 -9.999 -99.9 -99.99 -9.99
2020/01/26 13:06 EST    7.42   8.05   11  330   15  43.5  39.4 1008.3 -9.9 -9.999 -99.9 -99.99 -9.99
2020/01/26 13:12 EST    7.37   8.02   13    0   17  43.7  39.4 1008.2 -9.9 -9.999 -99.9 -99.99 -9.99
2020/01/26 13:18 EST    7.31   7.97   13  341   17  43.3  39.4 1008.2 -9.9 -9.999 -99.9 -99.99 -9.99
2020/01/26 13:24 EST    7.24   7.92   14  321   16  43.3  39.4 1008.1 -9.9 -9.999 -99.9 -99.99 -9.99
2020/01/26 13:30 EST    7.15   7.85   12  334   16  43.0  39.4 1008.1 -9.9 -9.999 -99.9 -99.99 -9.99
2020/01/26 13:36 EST    7.06   7.77   12  340   14  43.2  39.4 1008.0 -9.9 -9.999 -99.9 -99.99 -9.99
2020/01/26 13:42 EST    6.96   7.68   12  341   16  43.5  39.4 1008.0 -9.9 -9.999 -99.9 -99.99 -9.99
2020/01/26 13:48 EST    6.84   7.58   11  345   16  43.5  39.4 1008.0 -9.9 -9.999 -99.9 -99.99 -9.99
2020/01/26 13:54 EST    6.72   7.45   15  325   20  43.3  39.2 1008.0 -9.9 -9.999 -99.9 -99.99 -9.99
2020/01/26 14:00 EST    6.58   7.32   10  341   17  42.8  39.2 1008.0 -9.9 -9.999 -99.9 -99.99 -9.99
2020/01/26 14:06 EST    6.43   7.18   10    3   14  43.7  39.2 1007.9 -9.9 -9.999 -99.9 -99.99 -9.99
2020/01/26 14:12 EST    6.27   7.02   12  334   16  43.3  39.2 1008.0 -9.9 -9.999 -99.9 -99.99 -9.99
2020/01/26 14:18 EST    6.11   6.84   10  353   12  43.0  39.2 1007.9 -9.9 -9.999 -99.9 -99.99 -9.99
2020/01/26 14:24 EST    5.93   6.65   11  325   15  43.5  39.2 1007.9 -9.9 -9.999 -99.9 -99.99 -9.99
2020/01/26 14:30 EST    5.74   6.45    9  333   13  43.5  39.0 1008.0 -9.9 -9.999 -99.9 -99.99 -9.99
2020/01/26 14:36 EST    5.54   6.23    7  327    9  43.7  39.0 1008.0 -9.9 -9.999 -99.9 -99.99 -9.99
2020/01/26 14:42 EST    5.34   6.01   13  323   17  43.2  39.2 1008.0 -9.9 -9.999 -99.9 -99.99 -9.99
2020/01/26 14:48 EST    5.13   5.79   13  336   17  43.3  39.4 1008.1 -9.9 -9.999 -99.9 -99.99 -9.99
2020/01/26 14:54 EST    4.92   5.56   10  335   14  43.2  39.4 1008.1 -9.9 -9.999 -99.9 -99.99 -9.99
2020/01/26 15:00 EST    4.70   5.32   11  317   15  43.3  39.6 1008.1 -9.9 -9.999 -99.9 -99.99 -9.99
2020/01/26 15:06 EST    4.47   5.08   11  314   13  43.3  39.6 1008.1 -9.9 -9.999 -99.9 -99.99 -9.99
2020/01/26 15:12 EST    4.25   4.84   11  311   15  43.5  39.6 1008.0 -9.9 -9.999 -99.9 -99.99 -9.99
2020/01/26 15:18 EST    4.02   4.61    9  315   11  43.0  39.6 1008.1 -9.9 -9.999 -99.9 -99.99 -9.99
2020/01/26 15:24 EST    3.79   4.39   10  313   11  43.0  39.6 1008.1 -9.9 -9.999 -99.9 -99.99 -9.99
2020/01/26 15:30 EST    3.56   4.18    9  299   11  43.2  39.6 1008.1 -9.9 -9.999 -99.9 -99.99 -9.99
2020/01/26 15:36 EST    3.34   3.95    8  297   11  43.0  39.6 1008.2 -9.9 -9.999 -99.9 -99.99 -9.99
2020/01/26 15:42 EST    3.11   3.71    9  298   12  43.2  39.6 1008.3 -9.9 -9.999 -99.9 -99.99 -9.99
2020/01/26 15:48 EST    2.89   3.50   11  303   13  43.2  39.6 1008.2 -9.9 -9.999 -99.9 -99.99 -9.99
2020/01/26 15:54 EST    2.68   3.31    9  305   13  42.8  39.6 1008.4 -9.9 -9.999 -99.9 -99.99 -9.99
2020/01/26 16:00 EST    2.47   3.09   10  308   12  43.0  39.6 1008.3 -9.9 -9.999 -99.9 -99.99 -9.99
2020/01/26 16:06 EST    2.27   2.89   13  313   15  43.7  39.7 1008.3 -9.9 -9.999 -99.9 -99.99 -9.99
2020/01/26 16:12 EST    2.08   2.68   10  298   12  43.5  39.6 1008.4 -9.9 -9.999 -99.9 -99.99 -9.99
2020/01/26 16:18 EST    1.90   2.49   10  314   12  43.2  39.7 1008.4 -9.9 -9.999 -99.9 -99.99 -9.99
2020/01/26 16:24 EST    1.72   2.31    9  304   10  43.0  39.6 1008.4 -9.9 -9.999 -99.9 -99.99 -9.99
2020/01/26 16:30 EST    1.55   2.12    9  304   11  43.2  39.6 1008.4 -9.9 -9.999 -99.9 -99.99 -9.99
2020/01/26 16:36 EST    1.40   1.93    9  301   10  43.2  39.6 1008.4 -9.9 -9.999 -99.9 -99.99 -9.99
2020/01/26 16:42 EST    1.25   1.74    9  299   11  43.3  39.7 1008.4 -9.9 -9.999 -99.9 -99.99 -9.99
2020/01/26 16:48 EST    1.11   1.55    7  302   10  43.2  39.6 1008.5 -9.9 -9.999 -99.9 -99.99 -9.99
2020/01/26 16:54 EST    0.98   1.40    7  301    8  43.0  39.6 1008.6 -9.9 -9.999 -99.9 -99.99 -9.99
2020/01/26 17:00 EST    0.86   1.24    7  303    8  43.2  39.6 1008.6 -9.9 -9.999 -99.9 -99.99 -9.99
2020/01/26 17:06 EST    0.75   1.11    8  297   10  43.3  39.6 1008.5 -9.9 -9.999 -99.9 -99.99 -9.99
2020/01/26 17:12 EST    0.65   0.97   10  301   12  43.7  39.7 1008.6 -9.9 -9.999 -99.9 -99.99 -9.99
2020/01/26 17:18 EST    0.56   0.87   11  308   13  43.5  39.7 1008.6 -9.9 -9.999 -99.9 -99.99 -9.99
2020/01/26 17:24 EST    0.47   0.78   11  316   14  43.5  39.9 1008.6 -9.9 -9.999 -99.9 -99.99 -9.99
2020/01/26 17:30 EST    0.39   0.69   11  331   14  43.5  39.7 1008.7 -9.9 -9.999 -99.9 -99.99 -9.99
2020/01/26 17:36 EST    0.32   0.62   14  328   16  43.3  39.7 1008.7 -9.9 -9.999 -99.9 -99.99 -9.99
2020/01/26 17:42 EST    0.25   0.57   14  334   18  43.3  39.6 1008.8 -9.9 -9.999 -99.9 -99.99 -9.99
2020/01/26 17:48 EST    0.19   0.53   14  318   17  43.5  39.6 1008.9 -9.9 -9.999 -99.9 -99.99 -9.99
2020/01/26 17:54 EST    0.13   0.49   12  324   17  43.2  39.6 1008.9 -9.9 -9.999 -99.9 -99.99 -9.99
2020/01/26 18:00 EST    0.07   0.48   14  315   17  43.5  39.7 1008.8 -9.9 -9.999 -99.9 -99.99 -9.99
2020/01/26 18:06 EST    0.02   0.46   11  316   17  43.0  39.7 1008.9 -9.9 -9.999 -99.9 -99.99 -9.99
2020/01/26 18:12 EST   -0.03   0.45   13  320   16  43.2  39.7 1008.9 -9.9 -9.999 -99.9 -99.99 -9.99
2020/01/26 18:18 EST   -0.07   0.43   12  321   14  42.8  39.7 1009.0 -9.9 -9.999 -99.9 -99.99 -9.99
2020/01/26 18:24 EST   -0.11   0.41   13  320   17  43.0  39.7 1009.0 -9.9 -9.999 -99.9 -99.99 -9.99
2020/01/26 18:30 EST   -0.15   0.40   10  315   14  42.8  39.7 1009.0 -9.9 -9.999 -99.9 -99.99 -9.99
2020/01/26 18:36 EST   -0.19   0.38   13  320   16  42.6  39.7 1009.0 -9.9 -9.999 -99.9 -99.99 -9.99
2020/01/26 18:42 EST   -0.22   0.35   12  321   15  42.8  39.7 1009.1 -9.9 -9.999 -99.9 -99.99 -9.99
2020/01/26 18:48 EST   -0.25   0.33   11  318   16  42.8  39.7 1009.1 -9.9 -9.999 -99.9 -99.99 -9.99
2020/01/26 18:54 EST   -0.27   0.29   12  318   15  42.8  39.6 1009.2 -9.9 -9.999 -99.9 -99.99 -9.99
2020/01/26 19:00 EST   -0.29   0.26   11  313   16  42.6  39.6 1009.2 -9.9 -9.999 -99.9 -99.99 -9.99
2020/01/26 19:06 EST   -0.30   0.22   11  301   13  43.0  39.6 1009.1 -9.9 -9.999 -99.9 -99.99 -9.99
2020/01/26 19:12 EST   -0.30   0.18   10  301   13  42.6  39.6 1009.2 -9.9 -9.999 -99.9 -99.99 -9.99
2020/01/26 19:18 EST   -0.29   0.18   13  315   14  42.6  39.6 1009.1 -9.9 -9.999 -99.9 -99.99 -9.99
2020/01/26 19:24 EST   -0.28   0.14   14  310   17  42.3  39.6 1009.2 -9.9 -9.999 -99.9 -99.99 -9.99
2020/01/26 19:30 EST   -0.25   0.14   16  318   19  42.4  39.6 1009.2 -9.9 -9.999 -99.9 -99.99 -9.99
2020/01/26 19:36 EST   -0.22   0.13   11  318   16  42.3  39.4 1009.3 -9.9 -9.999 -99.9 -99.99 -9.99
2020/01/26 19:42 EST   -0.17   0.16   14  315   17  42.3  39.4 1009.3 -9.9 -9.999 -99.9 -99.99 -9.99
2020/01/26 19:48 EST   -0.11   0.17   15  311   19  42.1  39.4 1009.4 -9.9 -9.999 -99.9 -99.99 -9.99
2020/01/26 19:54 EST   -0.03   0.21   13  312   16  41.9  39.4 1009.4 -9.9 -9.999 -99.9 -99.99 -9.99
2020/01/26 20:00 EST    0.06   0.26   14  315   18  42.1  39.4 1009.5 -9.9 -9.999 -99.9 -99.99 -9.99
2020/01/26 20:06 EST    0.16   0.32   13  314   17  41.9  39.4 1009.6 -9.9 -9.999 -99.9 -99.99 -9.99
2020/01/26 20:12 EST    0.28   0.42   12  308   16  41.5  39.4 1009.6 -9.9 -9.999 -99.9 -99.99 -9.99
2020/01/26 20:18 EST    0.42   0.54   11  304   14  41.5  39.4 1009.6 -9.9 -9.999 -99.9 -99.99 -9.99
2020/01/26 20:24 EST    0.57   0.66   13  310   17  41.7  39.4 1009.4 -9.9 -9.999 -99.9 -99.99 -9.99
2020/01/26 20:30 EST    0.73   0.79   15  310   17  41.4  39.4 1009.4 -9.9 -9.999 -99.9 -99.99 -9.99
2020/01/26 20:36 EST    0.91   0.97   16  304   19  41.2  39.4 1009.4 -9.9 -9.999 -99.9 -99.99 -9.99
2020/01/26 20:42 EST    1.10   1.13   12  303   17  41.0  39.4 1009.5 -9.9 -9.999 -99.9 -99.99 -9.99
2020/01/26 20:48 EST    1.30   1.35   12  302   15  41.0  39.4 1009.4 -9.9 -9.999 -99.9 -99.99 -9.99
2020/01/26 20:54 EST    1.51   1.56   11  301   15  41.0  39.4 1009.4 -9.9 -9.999 -99.9 -99.99 -9.99
2020/01/26 21:00 EST    1.73   1.80    9  301   15  40.8  39.4 1009.4 -9.9 -9.999 -99.9 -99.99 -9.99
2020/01/26 21:06 EST    1.97   2.06   10  300   15  40.6  39.4 1009.4 -9.9 -9.999 -99.9 -99.99 -9.99
2020/01/26 21:12 EST    2.20   2.31   12  307   17  40.6  39.4 1009.4 -9.9 -9.999 -99.9 -99.99 -9.99
2020/01/26 21:18 EST    2.45   2.59   13  307   15  40.5  39.4 1009.3 -9.9 -9.999 -99.9 -99.99 -9.99
2020/01/26 21:24 EST    2.69   2.88   11  304   13  40.5  39.4 1009.3 -9.9 -9.999 -99.9 -99.99 -9.99
2020/01/26 21:30 EST    2.94   3.15   11  304   15  40.3  39.4 1009.3 -9.9 -9.999 -99.9 -99.99 -9.99
2020/01/26 21:36 EST    3.19   3.42   14  307   17  40.5  39.4 1009.2 -9.9 -9.999 -99.9 -99.99 -9.99
2020/01/26 21:42 EST    3.44   3.69   13  308   17  40.3  39.4 1009.3 -9.9 -9.999 -99.9 -99.99 -9.99
2020/01/26 21:48 EST    3.68   3.97   14  310   17  40.3  39.6 1009.2 -9.9 -9.999 -99.9 -99.99 -9.99
2020/01/26 21:54 EST    3.92   4.23   15  313   17  40.3  39.6 1009.2 -9.9 -9.999 -99.9 -99.99 -9.99
2020/01/26 22:00 EST    4.16   4.47   14  311   17  40.5  39.6 1009.2 -9.9 -9.999 -99.9 -99.99 -9.99
2020/01/26 22:06 EST    4.38   4.71   13  306   16  40.5  39.6 1009.2 -9.9 -9.999 -99.9 -99.99 -9.99
2020/01/26 22:12 EST    4.60   4.95   13  304   17  40.5  39.6 1009.2 -9.9 -9.999 -99.9 -99.99 -9.99
2020/01/26 22:18 EST    4.81   5.19   13  304   16  40.5  39.6 1009.1 -9.9 -9.999 -99.9 -99.99 -9.99
2020/01/26 22:24 EST    5.01   5.38   14  303   16  40.5  39.6 1009.1 -9.9 -9.999 -99.9 -99.99 -9.99
2020/01/26 22:30 EST    5.20   5.57   12  300   17  40.3  39.6 1009.0 -9.9 -9.999 -99.9 -99.99 -9.99
2020/01/26 22:36 EST    5.37   5.76   14  300   17  40.3  39.6 1009.0 -9.9 -9.999 -99.9 -99.99 -9.99
2020/01/26 22:42 EST    5.54   5.92   13  297   16  40.3  39.6 1009.0 -9.9 -9.999 -99.9 -99.99 -9.99
2020/01/26 22:48 EST    5.69   6.09   15  296   19  40.3  39.6 1009.0 -9.9 -9.999 -99.9 -99.99 -9.99
2020/01/26 22:54 EST    5.84   6.23   14  292   17  40.1  39.6 1009.0 -9.9 -9.999 -99.9 -99.99 -9.99
2020/01/26 23:00 EST    5.97   6.38   13  295   15  40.1  39.6 1008.8 -9.9 -9.999 -99.9 -99.99 -9.99
2020/01/26 23:06 EST    6.09   6.50   14  293   18  40.1  39.6 1008.8 -9.9 -9.999 -99.9 -99.99 -9.99
2020/01/26 23:12 EST    6.21   6.63   12  290   16  39.9  39.6 1008.9 -9.9 -9.999 -99.9 -99.99 -9.99
2020/01/26 23:18 EST    6.31   6.72   12  295   16  39.9  39.6 1008.8 -9.9 -9.999 -99.9 -99.99 -9.99
2020/01/26 23:24 EST    6.40   6.81   13  294   16  39.9  39.6 1008.7 -9.9 -9.999 -99.9 -99.99 -9.99
2020/01/26 23:30 EST    6.49   6.90   13  300   16  39.9  39.6 1008.7 -9.9 -9.999 -99.9 -99.99 -9.99
2020/01/26 23:36 EST    6.57   6.97   11  299   16  39.7  39.6 1008.8 -9.9 -9.999 -99.9 -99.99 -9.99
2020/01/26 23:42 EST    6.64   7.05   11  301   16  39.7  39.6 1008.6 -9.9 -9.999 -99.9 -99.99 -9.99
2020/01/26 23:48 EST    6.70   7.08   14  299   17  39.9  39.6 1008.5 -9.9 -9.999 -99.9 -99.99 -9.99
2020/01/26 23:54 EST    6.76   7.13   12  303   16  39.6  39.6 1008.5 -9.9 -9.999 -99.9 -99.99 -9.99
2020/01/27 00:00 EST    6.81   7.17   13  311   15  39.6  39.6 1008.5 -9.9 -9.999 -99.9 -99.99 -9.99
2020/01/27 00:06 EST    6.86   7.19   11  302   16  39.6  39.6 1008.5 -9.9 -9.999 -99.9 -99.99 -9.99
2020/01/27 00:12 EST    6.90   7.22   11  303   14  39.6  39.6 1008.3 -9.9 -9.999 -99.9 -99.99 -9.99
2020/01/27 00:18 EST    6.94   7.22   13  303   17  39.6  39.4 1008.4 -9.9 -9.999 -99.9 -99.99 -9.99
2020/01/27 00:24 EST    6.97   7.23   11  298   17  39.6  39.6 1008.3 -9.9 -9.999 -99.9 -99.99 -9.99
2020/01/27 00:30 EST    7.00   7.24   11  302   15  39.6  39.6 1008.3 -9.9 -9.999 -99.9 -99.99 -9.99
2020/01/27 00:36 EST    7.02   7.25   12  304   14  39.6  39.6 1008.2 -9.9 -9.999 -99.9 -99.99 -9.99
2020/01/27 00:42 EST    7.04   7.28   13  306   15  39.6  39.4 1008.1 -9.9 -9.999 -99.9 -99.99 -9.99
2020/01/27 00:48 EST    7.05   7.28   14  306   17  39.6  39.6 1008.0 -9.9 -9.999 -99.9 -99.99 -9.99
2020/01/27 00:54 EST    7.06   7.28   10  306   15  39.4  39.6 1008.0 -9.9 -9.999 -99.9 -99.99 -9.99
2020/01/27 01:00 EST    7.06   7.29   11  298   12  39.6  39.4 1007.9 -9.9 -9.999 -99.9 -99.99 -9.99
2020/01/27 01:06 EST    7.06   7.28    8  298   11  39.4  39.4 1007.9 -9.9 -9.999 -99.9 -99.99 -9.99
2020/01/27 01:12 EST    7.05   7.29   10  301   13  39.4  39.6 1007.8 -9.9 -9.999 -99.9 -99.99 -9.99
2020/01/27 01:18 EST    7.03   7.28    9  298   13  39.4  39.6 1007.7 -9.9 -9.999 -99.9 -99.99 -9.99
2020/01/27 01:24 EST    7.00   7.25   11  295   14  39.6  39.6 1007.6 -9.9 -9.999 -99.9 -99.99 -9.99
2020/01/27 01:30 EST    6.97   7.23    9  286   13  39.4  39.4 1007.7 -9.9 -9.999 -99.9 -99.99 -9.99
2020/01/27 01:36 EST    6.93   7.20    9  287   11  39.2  39.4 1007.7 -9.9 -9.999 -99.9 -99.99 -9.99
2020/01/27 01:42 EST    6.87   7.16    8  276   11  39.0  39.4 1007.7 -9.9 -9.999 -99.9 -99.99 -9.99
2020/01/27 01:48 EST    6.81   7.12    9  275   10  39.0  39.4 1007.7 -9.9 -9.999 -99.9 -99.99 -9.99
2020/01/27 01:54 EST    6.74   7.05    8  274   13  38.8  39.4 1007.6 -9.9 -9.999 -99.9 -99.99 -9.99
2020/01/27 02:00 EST    6.66   7.01    8  262   10  38.7  39.4 1007.5 -9.9 -9.999 -99.9 -99.99 -9.99
2020/01/27 02:06 EST    6.56   6.96    9  267   10  38.7  39.4 1007.4 -9.9 -9.999 -99.9 -99.99 -9.99
2020/01/27 02:12 EST    6.46   6.89    7  266    9  38.5  39.2 1007.4 -9.9 -9.999 -99.9 -99.99 -9.99
2020/01/27 02:18 EST    6.34   6.81    7  268   10  38.5  39.4 1007.4 -9.9 -9.999 -99.9 -99.99 -9.99
2020/01/27 02:24 EST    6.22   6.71    7  272    9  38.5  39.2 1007.4 -9.9 -9.999 -99.9 -99.99 -9.99
2020/01/27 02:30 EST    6.08   6.59    8  282    9  38.5  39.4 1007.6 -9.9 -9.999 -99.9 -99.99 -9.99
2020/01/27 02:36 EST    5.93   6.47    7  290    9  38.5  39.4 1007.6 -9.9 -9.999 -99.9 -99.99 -9.99
2020/01/27 02:42 EST    5.78   6.33    7  288    9  38.7  39.4 1007.5 -9.9 -9.999 -99.9 -99.99 -9.99
2020/01/27 02:48 EST    5.61   6.17    9  301   10  39.0  39.4 1007.4 -9.9 -9.999 -99.9 -99.99 -9.99
2020/01/27 02:54 EST    5.44   6.00    9  271   12  39.0  39.4 1007.3 -9.9 -9.999 -99.9 -99.99 -9.99
2020/01/27 03:00 EST    5.25   5.83    8  254    9  38.7  39.2 1007.2 -9.9 -9.999 -99.9 -99.99 -9.99
2020/01/27 03:06 EST    5.06   5.65    6  269    9  38.8  39.2 1007.1 -9.9 -9.999 -99.9 -99.99 -9.99
2020/01/27 03:12 EST    4.86   5.45    9  293   13  39.0  39.2 1007.1 -9.9 -9.999 -99.9 -99.99 -9.99
2020/01/27 03:18 EST    4.66   5.26    7  270   10  38.8  39.2 1007.0 -9.9 -9.999 -99.9 -99.99 -9.99
2020/01/27 03:24 EST    4.45   5.06    8  292    9  39.0  39.2 1006.9 -9.9 -9.999 -99.9 -99.99 -9.99
2020/01/27 03:30 EST    4.24   4.86   11  287   16  39.2  39.2 1006.9 -9.9 -9.999 -99.9 -99.99 -9.99
2020/01/27 03:36 EST    4.03   4.64   13  293   15  39.0  39.0 1006.8 -9.9 -9.999 -99.9 -99.99 -9.99
2020/01/27 03:42 EST    3.82   4.43   10  300   15  38.7  39.0 1006.8 -9.9 -9.999 -99.9 -99.99 -9.99
2020/01/27 03:48 EST    3.60   4.21   12  303   16  38.5  39.0 1006.8 -9.9 -9.999 -99.9 -99.99 -9.99
2020/01/27 03:54 EST    3.39   3.99   13  305   15  38.5  39.0 1006.8 -9.9 -9.999 -99.9 -99.99 -9.99
2020/01/27 04:00 EST    3.18   3.77   13  297   17  38.5  39.0 1006.8 -9.9 -9.999 -99.9 -99.99 -9.99
2020/01/27 04:06 EST    2.97   3.54   12  302   16  38.5  39.0 1006.8 -9.9 -9.999 -99.9 -99.99 -9.99
2020/01/27 04:12 EST    2.76   3.33   13  305   15  38.7  39.0 1006.7 -9.9 -9.999 -99.9 -99.99 -9.99
2020/01/27 04:18 EST    2.56   3.09   12  299   16  38.8  39.0 1006.6 -9.9 -9.999 -99.9 -99.99 -9.99
2020/01/27 04:24 EST    2.37   2.89   13  306   15  39.0  39.0 1006.6 -9.9 -9.999 -99.9 -99.99 -9.99
2020/01/27 04:30 EST    2.19   2.69   11  299   14  39.0  38.8 1006.5 -9.9 -9.999 -99.9 -99.99 -9.99
2020/01/27 04:36 EST    2.01   2.50   12  298   16  39.0  38.8 1006.5 -9.9 -9.999 -99.9 -99.99 -9.99
2020/01/27 04:42 EST    1.84   2.28   11  294   14  38.8  39.0 1006.5 -9.9 -9.999 -99.9 -99.99 -9.99
2020/01/27 04:48 EST    1.68   2.10   10  284   11  38.7  39.0 1006.5 -9.9 -9.999 -99.9 -99.99 -9.99
2020/01/27 04:54 EST    1.54   1.89   10  271   11  38.7  39.0 1006.3 -9.9 -9.999 -99.9 -99.99 -9.99
2020/01/27 05:00 EST    1.40 -99.99 -999 -999 -999 -99.9 -99.9 -999.9 -9.9 -9.999 -99.9 -99.99 -9.99
2020/01/27 05:06 EST    1.27 -99.99 -999 -999 -999 -99.9 -99.9 -999.9 -9.9 -9.999 -99.9 -99.99 -9.99